Check out our new PWSWeather beta!
PWSweather.com
Personal Weather Stations
Station Observations
KUTEAGLE26
Meadow Ranch, Eagle Mountain, UT 84005

Meadow RanchEagle Mountain, UT 84005

Lat: 40.39, Lon: -111.985

Elevation: 5140

Station Type: Davis Vantage Pro 2

Latest ConditionsUpdated 10:36:00 AM MST Monday, Feb 24, 2020
Currently Today's Max Today's Min Today's Average
Temperature 32.3°F0.2°C 39.4°F4.1°C 28.0°F-2.2°C 32.1°F0.1°C
Dew Point 14.4°F-9.8°C 26.6°F-3.0°C 9.1°F-12.7°C 16.5°F-8.6°C
Winds 5.0 mph NNE8.0 kmh NNE 37.0 mph -59.5 kmh - - 14.3 mph 23.0 kmh
Wind Gusts 6.0 mph9.7 kmh 55.0 mph88.5 kmh - -
Humidity 47% 80% 35% 53%
Pressure 30.38 in1028.8 mb 30.38 in1028.8 mb 30.07 in1018.3 mb -
Hour Temp Dew Point Humidity Winds Wind Gusts Pressure Precip Precip Rate Daily Precip Total
10:36 AM 32.3°F0.2°C 14.4°F-9.8°C 47% 5.0 mph NNE8.0 kmh NNE 6.0 mph9.7 kmh 30.38 in1028.8 mb 0.00 in0.0 mm 0.00 in0.0 mm 0.00 in0.0 mm
10:35 AM 32.2°F0.1°C 14.3°F-9.8°C 47% 7.0 mph NE11.3 kmh NE 15.0 mph24.1 kmh 30.38 in1028.8 mb 0.00 in0.0 mm 0.00 in0.0 mm 0.00 in0.0 mm
10:34 AM 32.2°F0.1°C 14.7°F-9.6°C 48% 11.0 mph NE17.7 kmh NE 15.0 mph24.1 kmh 30.38 in1028.8 mb 0.00 in0.0 mm 0.00 in0.0 mm 0.00 in0.0 mm
10:33 AM 32.1°F0.1°C 15.1°F-9.4°C 49% 6.0 mph 9.7 kmh 10.0 mph16.1 kmh 30.38 in1028.8 mb 0.00 in0.0 mm 0.00 in0.0 mm 0.00 in0.0 mm
10:32 AM 32.1°F0.1°C 14.6°F-9.7°C 48% 11.0 mph NE17.7 kmh NE 17.0 mph27.4 kmh 30.38 in1028.8 mb 0.00 in0.0 mm 0.00 in0.0 mm 0.00 in0.0 mm
10:31 AM 32.1°F0.1°C 14.6°F-9.7°C 48% 14.0 mph NE22.5 kmh NE 18.0 mph29.0 kmh 30.38 in1028.8 mb 0.00 in0.0 mm 0.00 in0.0 mm 0.00 in0.0 mm
10:30 AM 32.0°F0.0°C 14.6°F-9.7°C 48% 6.0 mph E9.7 kmh E 10.0 mph16.1 kmh 30.38 in1028.8 mb 0.00 in0.0 mm 0.00 in0.0 mm 0.00 in0.0 mm
10:29 AM 31.9°F-0.1°C 14.0°F-10.0°C 47% 5.0 mph 8.0 kmh 9.0 mph14.5 kmh 30.38 in1028.8 mb 0.00 in0.0 mm 0.00 in0.0 mm 0.00 in0.0 mm
10:28 AM 31.8°F-0.1°C 13.9°F-10.1°C 47% 6.0 mph NNE9.7 kmh NNE 9.0 mph14.5 kmh 30.38 in1028.8 mb 0.00 in0.0 mm 0.00 in0.0 mm 0.00 in0.0 mm
10:27 AM 31.8°F-0.1°C 13.9°F-10.1°C 47% 3.0 mph NNW4.8 kmh NNW 5.0 mph8.0 kmh 30.38 in1028.8 mb 0.00 in0.0 mm 0.00 in0.0 mm 0.00 in0.0 mm
10:26 AM 31.8°F-0.1°C 13.4°F-10.3°C 46% 4.0 mph 6.4 kmh 5.0 mph8.0 kmh 30.38 in1028.8 mb 0.00 in0.0 mm 0.00 in0.0 mm 0.00 in0.0 mm
10:25 AM 31.8°F-0.1°C 14.4°F-9.8°C 48% 10.0 mph NNW16.1 kmh NNW 12.0 mph19.3 kmh 30.38 in1028.8 mb 0.00 in0.0 mm 0.00 in0.0 mm 0.00 in0.0 mm
10:24 AM 31.8°F-0.1°C 13.9°F-10.1°C 47% 8.0 mph 12.9 kmh 14.0 mph22.5 kmh 30.38 in1028.8 mb 0.00 in0.0 mm 0.00 in0.0 mm 0.00 in0.0 mm
10:23 AM 31.8°F-0.1°C 14.4°F-9.8°C 48% 8.0 mph 12.9 kmh 12.0 mph19.3 kmh 30.38 in1028.8 mb 0.00 in0.0 mm 0.00 in0.0 mm 0.00 in0.0 mm
10:22 AM 31.8°F-0.1°C 14.4°F-9.8°C 48% 9.0 mph NNW14.5 kmh NNW 12.0 mph19.3 kmh 30.38 in1028.8 mb 0.00 in0.0 mm 0.00 in0.0 mm 0.00 in0.0 mm
10:21 AM 31.7°F-0.2°C 14.3°F-9.8°C 48% 10.0 mph NNW16.1 kmh NNW 15.0 mph24.1 kmh 30.38 in1028.8 mb 0.00 in0.0 mm 0.00 in0.0 mm 0.00 in0.0 mm
10:20 AM 31.8°F-0.1°C 14.4°F-9.8°C 48% 10.0 mph NNW16.1 kmh NNW 15.0 mph24.1 kmh 30.38 in1028.8 mb 0.00 in0.0 mm 0.00 in0.0 mm 0.00 in0.0 mm
10:19 AM 31.8°F-0.1°C 14.4°F-9.8°C 48% 10.0 mph NNW16.1 kmh NNW 14.0 mph22.5 kmh 30.38 in1028.8 mb 0.00 in0.0 mm 0.00 in0.0 mm 0.00 in0.0 mm
10:18 AM 31.9°F-0.1°C 14.0°F-10.0°C 47% 12.0 mph NNW19.3 kmh NNW 16.0 mph25.7 kmh 30.38 in1028.8 mb 0.00 in0.0 mm 0.00 in0.0 mm 0.00 in0.0 mm
10:17 AM 32.0°F0.0°C 15.0°F-9.4°C 49% 11.0 mph NNW17.7 kmh NNW 16.0 mph25.7 kmh 30.38 in1028.8 mb 0.00 in0.0 mm 0.00 in0.0 mm 0.00 in0.0 mm
10:16 AM 31.9°F-0.1°C 15.4°F-9.2°C 50% 6.0 mph 9.7 kmh 11.0 mph17.7 kmh 30.38 in1028.8 mb 0.00 in0.0 mm 0.00 in0.0 mm 0.00 in0.0 mm
10:15 AM 31.8°F-0.1°C 14.4°F-9.8°C 48% 3.0 mph W4.8 kmh W 6.0 mph9.7 kmh 30.38 in1028.8 mb 0.00 in0.0 mm 0.00 in0.0 mm 0.00 in0.0 mm
10:14 AM 31.9°F-0.1°C 14.5°F-9.7°C 48% 6.0 mph NNW9.7 kmh NNW 11.0 mph17.7 kmh 30.38 in1028.8 mb 0.00 in0.0 mm 0.00 in0.0 mm 0.00 in0.0 mm
10:13 AM 31.9°F-0.1°C 14.9°F-9.5°C 49% 6.0 mph 9.7 kmh 11.0 mph17.7 kmh 30.38 in1028.8 mb 0.00 in0.0 mm 0.00 in0.0 mm 0.00 in0.0 mm
10:12 AM 31.8°F-0.1°C 14.4°F-9.8°C 48% 3.0 mph NNW4.8 kmh NNW 8.0 mph12.9 kmh 30.38 in1028.8 mb 0.00 in0.0 mm 0.00 in0.0 mm 0.00 in0.0 mm
10:11 AM 31.8°F-0.1°C 14.4°F-9.8°C 48% 5.0 mph NNW8.0 kmh NNW 9.0 mph14.5 kmh 30.38 in1028.8 mb 0.00 in0.0 mm 0.00 in0.0 mm 0.00 in0.0 mm
10:10 AM 31.9°F-0.1°C 14.5°F-9.7°C 48% 9.0 mph ENE14.5 kmh ENE 17.0 mph27.4 kmh 30.37 in1028.4 mb 0.00 in0.0 mm 0.00 in0.0 mm 0.00 in0.0 mm
10:09 AM 32.0°F0.0°C 14.6°F-9.7°C 48% 8.0 mph NE12.9 kmh NE 14.0 mph22.5 kmh 30.37 in1028.4 mb 0.00 in0.0 mm 0.00 in0.0 mm 0.00 in0.0 mm
10:08 AM 32.0°F0.0°C 15.5°F-9.2°C 50% 6.0 mph 9.7 kmh 9.0 mph14.5 kmh 30.37 in1028.4 mb 0.00 in0.0 mm 0.00 in0.0 mm 0.00 in0.0 mm
10:07 AM 31.9°F-0.1°C 14.9°F-9.5°C 49% 2.0 mph WNW3.2 kmh WNW 4.0 mph6.4 kmh 30.38 in1028.8 mb 0.00 in0.0 mm 0.00 in0.0 mm 0.00 in0.0 mm
10:06 AM 31.8°F-0.1°C 14.8°F-9.6°C 49% 5.0 mph NNE8.0 kmh NNE 8.0 mph12.9 kmh 30.38 in1028.8 mb 0.00 in0.0 mm 0.00 in0.0 mm 0.00 in0.0 mm
10:05 AM 31.8°F-0.1°C 14.8°F-9.6°C 49% 6.0 mph NNE9.7 kmh NNE 11.0 mph17.7 kmh 30.37 in1028.4 mb 0.00 in0.0 mm 0.00 in0.0 mm 0.00 in0.0 mm
10:04 AM 31.7°F-0.2°C 14.8°F-9.6°C 49% 5.0 mph 8.0 kmh 8.0 mph12.9 kmh 30.38 in1028.8 mb 0.00 in0.0 mm 0.00 in0.0 mm 0.00 in0.0 mm
10:03 AM 31.7°F-0.2°C 15.2°F-9.3°C 50% 3.0 mph NNE4.8 kmh NNE 10.0 mph16.1 kmh 30.38 in1028.8 mb 0.00 in0.0 mm 0.00 in0.0 mm 0.00 in0.0 mm
10:02 AM 31.6°F-0.2°C 15.1°F-9.4°C 50% 4.0 mph NW6.4 kmh NW 7.0 mph11.3 kmh 30.38 in1028.8 mb 0.00 in0.0 mm 0.00 in0.0 mm 0.00 in0.0 mm
10:01 AM 31.6°F-0.2°C 15.1°F-9.4°C 50% 4.0 mph 6.4 kmh 8.0 mph12.9 kmh 30.38 in1028.8 mb 0.00 in0.0 mm 0.00 in0.0 mm 0.00 in0.0 mm
10:00 AM 31.6°F-0.2°C 15.1°F-9.4°C 50% 11.0 mph 17.7 kmh 17.0 mph27.4 kmh 30.37 in1028.4 mb 0.00 in0.0 mm 0.00 in0.0 mm 0.00 in0.0 mm
09:59 AM 31.6°F-0.2°C 15.1°F-9.4°C 50% 6.0 mph WNW9.7 kmh WNW 14.0 mph22.5 kmh 30.37 in1028.4 mb 0.00 in0.0 mm 0.00 in0.0 mm 0.00 in0.0 mm
09:58 AM 31.4°F-0.3°C 15.4°F-9.2°C 51% 4.0 mph NE6.4 kmh NE 7.0 mph11.3 kmh 30.37 in1028.4 mb 0.00 in0.0 mm 0.00 in0.0 mm 0.00 in0.0 mm
09:57 AM 31.3°F-0.4°C 14.8°F-9.6°C 50% 8.0 mph NNE12.9 kmh NNE 10.0 mph16.1 kmh 30.37 in1028.4 mb 0.00 in0.0 mm 0.00 in0.0 mm 0.00 in0.0 mm
09:56 AM 31.1°F-0.5°C 15.1°F-9.4°C 51% 6.0 mph 9.7 kmh 9.0 mph14.5 kmh 30.37 in1028.4 mb 0.00 in0.0 mm 0.00 in0.0 mm 0.00 in0.0 mm
09:55 AM 31.0°F-0.6°C 14.6°F-9.7°C 50% 2.0 mph NNE3.2 kmh NNE 5.0 mph8.0 kmh 30.37 in1028.4 mb 0.00 in0.0 mm 0.00 in0.0 mm 0.00 in0.0 mm
09:54 AM 30.9°F-0.6°C 14.5°F-9.7°C 50% 8.0 mph NNE12.9 kmh NNE 14.0 mph22.5 kmh 30.37 in1028.4 mb 0.00 in0.0 mm 0.00 in0.0 mm 0.00 in0.0 mm
09:53 AM 30.9°F-0.6°C 14.5°F-9.7°C 50% 7.0 mph NE11.3 kmh NE 16.0 mph25.7 kmh 30.37 in1028.4 mb 0.00 in0.0 mm 0.00 in0.0 mm 0.00 in0.0 mm
09:52 AM 30.8°F-0.7°C 14.4°F-9.8°C 50% 5.0 mph ENE8.0 kmh ENE 8.0 mph12.9 kmh 30.38 in1028.8 mb 0.00 in0.0 mm 0.00 in0.0 mm 0.00 in0.0 mm
09:51 AM 30.8°F-0.7°C 14.4°F-9.8°C 50% 7.0 mph NNE11.3 kmh NNE 11.0 mph17.7 kmh 30.37 in1028.4 mb 0.00 in0.0 mm 0.00 in0.0 mm 0.00 in0.0 mm
09:50 AM 30.7°F-0.7°C 14.7°F-9.6°C 51% 5.0 mph 8.0 kmh 9.0 mph14.5 kmh 30.37 in1028.4 mb 0.00 in0.0 mm 0.00 in0.0 mm 0.00 in0.0 mm
09:49 AM 30.6°F-0.8°C 14.6°F-9.7°C 51% 6.0 mph 9.7 kmh 11.0 mph17.7 kmh 30.38 in1028.8 mb 0.00 in0.0 mm 0.00 in0.0 mm 0.00 in0.0 mm
09:48 AM 30.6°F-0.8°C 14.6°F-9.7°C 51% 11.0 mph NNE17.7 kmh NNE 15.0 mph24.1 kmh 30.37 in1028.4 mb 0.00 in0.0 mm 0.00 in0.0 mm 0.00 in0.0 mm
09:47 AM 30.5°F-0.8°C 14.6°F-9.7°C 51% 7.0 mph 11.3 kmh 13.0 mph20.9 kmh 30.37 in1028.4 mb 0.00 in0.0 mm 0.00 in0.0 mm 0.00 in0.0 mm
09:46 AM 30.3°F-0.9°C 14.4°F-9.8°C 51% 3.0 mph 4.8 kmh 5.0 mph8.0 kmh 30.38 in1028.8 mb 0.00 in0.0 mm 0.00 in0.0 mm 0.00 in0.0 mm
09:45 AM 30.3°F-0.9°C 14.4°F-9.8°C 51% 5.0 mph 8.0 kmh 8.0 mph12.9 kmh 30.37 in1028.4 mb 0.00 in0.0 mm 0.00 in0.0 mm 0.00 in0.0 mm
09:44 AM 30.3°F-0.9°C 14.4°F-9.8°C 51% 7.0 mph NNW11.3 kmh NNW 11.0 mph17.7 kmh 30.37 in1028.4 mb 0.00 in0.0 mm 0.00 in0.0 mm 0.00 in0.0 mm
09:43 AM 30.3°F-0.9°C 14.4°F-9.8°C 51% 9.0 mph NNW14.5 kmh NNW 11.0 mph17.7 kmh 30.37 in1028.4 mb 0.00 in0.0 mm 0.00 in0.0 mm 0.00 in0.0 mm
09:42 AM 30.3°F-0.9°C 14.4°F-9.8°C 51% 10.0 mph 16.1 kmh 13.0 mph20.9 kmh 30.37 in1028.4 mb 0.00 in0.0 mm 0.00 in0.0 mm 0.00 in0.0 mm
09:41 AM 30.3°F-0.9°C 14.4°F-9.8°C 51% 12.0 mph 19.3 kmh 17.0 mph27.4 kmh 30.37 in1028.4 mb 0.00 in0.0 mm 0.00 in0.0 mm 0.00 in0.0 mm
09:40 AM 30.3°F-0.9°C 14.4°F-9.8°C 51% 18.0 mph NNW29.0 kmh NNW 22.0 mph35.4 kmh 30.37 in1028.4 mb 0.00 in0.0 mm 0.00 in0.0 mm 0.00 in0.0 mm
09:39 AM 30.3°F-0.9°C 14.4°F-9.8°C 51% 10.0 mph 16.1 kmh 14.0 mph22.5 kmh 30.37 in1028.4 mb 0.00 in0.0 mm 0.00 in0.0 mm 0.00 in0.0 mm
09:38 AM 30.2°F-1.0°C 14.3°F-9.8°C 51% 7.0 mph 11.3 kmh 9.0 mph14.5 kmh 30.36 in1028.1 mb 0.00 in0.0 mm 0.00 in0.0 mm 0.00 in0.0 mm
09:37 AM 30.1°F-1.1°C 14.2°F-9.9°C 51% 12.0 mph 19.3 kmh 15.0 mph24.1 kmh 30.37 in1028.4 mb 0.00 in0.0 mm 0.00 in0.0 mm 0.00 in0.0 mm
09:36 AM 30.0°F-1.1°C 14.5°F-9.7°C 52% 10.0 mph NNE16.1 kmh NNE 17.0 mph27.4 kmh 30.37 in1028.4 mb 0.00 in0.0 mm 0.00 in0.0 mm 0.00 in0.0 mm
09:35 AM 29.9°F-1.2°C 14.0°F-10.0°C 51% 12.0 mph NNW19.3 kmh NNW 16.0 mph25.7 kmh 30.36 in1028.1 mb 0.00 in0.0 mm 0.00 in0.0 mm 0.00 in0.0 mm
09:34 AM 30.0°F-1.1°C 14.1°F-9.9°C 51% 15.0 mph NNW24.1 kmh NNW 18.0 mph29.0 kmh 30.37 in1028.4 mb 0.00 in0.0 mm 0.00 in0.0 mm 0.00 in0.0 mm
09:33 AM 30.0°F-1.1°C 14.1°F-9.9°C 51% 14.0 mph NNW22.5 kmh NNW 17.0 mph27.4 kmh 30.37 in1028.4 mb 0.00 in0.0 mm 0.00 in0.0 mm 0.00 in0.0 mm
09:32 AM 30.0°F-1.1°C 14.5°F-9.7°C 52% 13.0 mph NNW20.9 kmh NNW 18.0 mph29.0 kmh 30.37 in1028.4 mb 0.00 in0.0 mm 0.00 in0.0 mm 0.00 in0.0 mm
09:31 AM 29.9°F-1.2°C 14.4°F-9.8°C 52% 12.0 mph 19.3 kmh 15.0 mph24.1 kmh 30.37 in1028.4 mb 0.00 in0.0 mm 0.00 in0.0 mm 0.00 in0.0 mm
09:30 AM 29.9°F-1.2°C 14.4°F-9.8°C 52% 15.0 mph NNW24.1 kmh NNW 18.0 mph29.0 kmh 30.37 in1028.4 mb 0.00 in0.0 mm 0.00 in0.0 mm 0.00 in0.0 mm
09:29 AM 29.9°F-1.2°C 14.4°F-9.8°C 52% 16.0 mph NNW25.7 kmh NNW 22.0 mph35.4 kmh 30.37 in1028.4 mb 0.00 in0.0 mm 0.00 in0.0 mm 0.00 in0.0 mm
09:28 AM 29.9°F-1.2°C 14.4°F-9.8°C 52% 14.0 mph NNW22.5 kmh NNW 20.0 mph32.2 kmh 30.37 in1028.4 mb 0.00 in0.0 mm 0.00 in0.0 mm 0.00 in0.0 mm
09:27 AM 29.8°F-1.2°C 14.3°F-9.8°C 52% 14.0 mph NNW22.5 kmh NNW 18.0 mph29.0 kmh 30.37 in1028.4 mb 0.00 in0.0 mm 0.00 in0.0 mm 0.00 in0.0 mm
09:26 AM 29.8°F-1.2°C 14.8°F-9.6°C 53% 14.0 mph NNW22.5 kmh NNW 19.0 mph30.6 kmh 30.37 in1028.4 mb 0.00 in0.0 mm 0.00 in0.0 mm 0.00 in0.0 mm
09:25 AM 29.8°F-1.2°C 14.3°F-9.8°C 52% 14.0 mph NNW22.5 kmh NNW 17.0 mph27.4 kmh 30.37 in1028.4 mb 0.00 in0.0 mm 0.00 in0.0 mm 0.00 in0.0 mm
09:24 AM 29.9°F-1.2°C 14.9°F-9.5°C 53% 17.0 mph NNW27.4 kmh NNW 22.0 mph35.4 kmh 30.37 in1028.4 mb 0.00 in0.0 mm 0.00 in0.0 mm 0.00 in0.0 mm
09:23 AM 29.9°F-1.2°C 14.9°F-9.5°C 53% 15.0 mph NNW24.1 kmh NNW 19.0 mph30.6 kmh 30.37 in1028.4 mb 0.00 in0.0 mm 0.00 in0.0 mm 0.00 in0.0 mm
09:22 AM 29.8°F-1.2°C 14.8°F-9.6°C 53% 15.0 mph NNW24.1 kmh NNW 18.0 mph29.0 kmh 30.37 in1028.4 mb 0.00 in0.0 mm 0.00 in0.0 mm 0.00 in0.0 mm
09:21 AM 29.7°F-1.3°C 14.3°F-9.8°C 52% 14.0 mph 22.5 kmh 19.0 mph30.6 kmh 30.37 in1028.4 mb 0.00 in0.0 mm 0.00 in0.0 mm 0.00 in0.0 mm
09:20 AM 29.8°F-1.2°C 14.8°F-9.6°C 53% 17.0 mph NNW27.4 kmh NNW 20.0 mph32.2 kmh 30.38 in1028.8 mb 0.00 in0.0 mm 0.00 in0.0 mm 0.00 in0.0 mm
09:19 AM 29.7°F-1.3°C 14.3°F-9.8°C 52% 15.0 mph NNW24.1 kmh NNW 18.0 mph29.0 kmh 30.37 in1028.4 mb 0.00 in0.0 mm 0.00 in0.0 mm 0.00 in0.0 mm
09:18 AM 29.7°F-1.3°C 14.7°F-9.6°C 53% 16.0 mph NNW25.7 kmh NNW 20.0 mph32.2 kmh 30.37 in1028.4 mb 0.00 in0.0 mm 0.00 in0.0 mm 0.00 in0.0 mm
09:17 AM 29.6°F-1.3°C 14.6°F-9.7°C 53% 15.0 mph NW24.1 kmh NW 22.0 mph35.4 kmh 30.37 in1028.4 mb 0.00 in0.0 mm 0.00 in0.0 mm 0.00 in0.0 mm
09:16 AM 29.6°F-1.3°C 14.6°F-9.7°C 53% 13.0 mph NNW20.9 kmh NNW 23.0 mph37.0 kmh 30.37 in1028.4 mb 0.00 in0.0 mm 0.00 in0.0 mm 0.00 in0.0 mm
09:15 AM 29.6°F-1.3°C 14.2°F-9.9°C 52% 17.0 mph NNW27.4 kmh NNW 22.0 mph35.4 kmh 30.38 in1028.8 mb 0.00 in0.0 mm 0.00 in0.0 mm 0.00 in0.0 mm
09:14 AM 29.6°F-1.3°C 14.2°F-9.9°C 52% 15.0 mph NNW24.1 kmh NNW 22.0 mph35.4 kmh 30.37 in1028.4 mb 0.00 in0.0 mm 0.00 in0.0 mm 0.00 in0.0 mm
09:13 AM 29.6°F-1.3°C 14.2°F-9.9°C 52% 13.0 mph 20.9 kmh 18.0 mph29.0 kmh 30.37 in1028.4 mb 0.00 in0.0 mm 0.00 in0.0 mm 0.00 in0.0 mm
09:12 AM 29.6°F-1.3°C 14.2°F-9.9°C 52% 15.0 mph NNW24.1 kmh NNW 19.0 mph30.6 kmh 30.37 in1028.4 mb 0.00 in0.0 mm 0.00 in0.0 mm 0.00 in0.0 mm
09:11 AM 29.6°F-1.3°C 14.2°F-9.9°C 52% 17.0 mph NNW27.4 kmh NNW 21.0 mph33.8 kmh 30.37 in1028.4 mb 0.00 in0.0 mm 0.00 in0.0 mm 0.00 in0.0 mm
09:10 AM 29.6°F-1.3°C 14.2°F-9.9°C 52% 15.0 mph NNW24.1 kmh NNW 19.0 mph30.6 kmh 30.37 in1028.4 mb 0.00 in0.0 mm 0.00 in0.0 mm 0.00 in0.0 mm
09:09 AM 29.6°F-1.3°C 14.2°F-9.9°C 52% 13.0 mph NNW20.9 kmh NNW 17.0 mph27.4 kmh 30.37 in1028.4 mb 0.00 in0.0 mm 0.00 in0.0 mm 0.00 in0.0 mm
09:08 AM 29.7°F-1.3°C 14.3°F-9.8°C 52% 15.0 mph NNW24.1 kmh NNW 19.0 mph30.6 kmh 30.37 in1028.4 mb 0.00 in0.0 mm 0.00 in0.0 mm 0.00 in0.0 mm
09:07 AM 29.6°F-1.3°C 14.2°F-9.9°C 52% 10.0 mph NNW16.1 kmh NNW 19.0 mph30.6 kmh 30.37 in1028.4 mb 0.00 in0.0 mm 0.00 in0.0 mm 0.00 in0.0 mm
09:06 AM 29.6°F-1.3°C 14.2°F-9.9°C 52% 14.0 mph NNW22.5 kmh NNW 18.0 mph29.0 kmh 30.37 in1028.4 mb 0.00 in0.0 mm 0.00 in0.0 mm 0.00 in0.0 mm
09:05 AM 29.6°F-1.3°C 14.2°F-9.9°C 52% 14.0 mph NNW22.5 kmh NNW 18.0 mph29.0 kmh 30.37 in1028.4 mb 0.00 in0.0 mm 0.00 in0.0 mm 0.00 in0.0 mm
09:04 AM 29.7°F-1.3°C 14.3°F-9.8°C 52% 13.0 mph NNW20.9 kmh NNW 17.0 mph27.4 kmh 30.37 in1028.4 mb 0.00 in0.0 mm 0.00 in0.0 mm 0.00 in0.0 mm
09:03 AM 29.7°F-1.3°C 14.3°F-9.8°C 52% 14.0 mph NW22.5 kmh NW 18.0 mph29.0 kmh 30.37 in1028.4 mb 0.00 in0.0 mm 0.00 in0.0 mm 0.00 in0.0 mm
09:02 AM 29.8°F-1.2°C 14.3°F-9.8°C 52% 14.0 mph NW22.5 kmh NW 20.0 mph32.2 kmh 30.37 in1028.4 mb 0.00 in0.0 mm 0.00 in0.0 mm 0.00 in0.0 mm
09:01 AM 29.8°F-1.2°C 14.3°F-9.8°C 52% 13.0 mph NW20.9 kmh NW 19.0 mph30.6 kmh 30.37 in1028.4 mb 0.00 in0.0 mm 0.00 in0.0 mm 0.00 in0.0 mm
09:00 AM 29.7°F-1.3°C 14.3°F-9.8°C 52% 11.0 mph NW17.7 kmh NW 16.0 mph25.7 kmh 30.36 in1028.1 mb 0.00 in0.0 mm 0.00 in0.0 mm 0.00 in0.0 mm
08:59 AM 29.7°F-1.3°C 14.3°F-9.8°C 52% 10.0 mph NW16.1 kmh NW 16.0 mph25.7 kmh 30.36 in1028.1 mb 0.00 in0.0 mm 0.00 in0.0 mm 0.00 in0.0 mm
08:58 AM 29.7°F-1.3°C 14.3°F-9.8°C 52% 12.0 mph NW19.3 kmh NW 17.0 mph27.4 kmh 30.37 in1028.4 mb 0.00 in0.0 mm 0.00 in0.0 mm 0.00 in0.0 mm
08:57 AM 29.6°F-1.3°C 14.2°F-9.9°C 52% 9.0 mph WNW14.5 kmh WNW 13.0 mph20.9 kmh 30.36 in1028.1 mb 0.00 in0.0 mm 0.00 in0.0 mm 0.00 in0.0 mm
08:56 AM 29.6°F-1.3°C 14.2°F-9.9°C 52% 12.0 mph NW19.3 kmh NW 15.0 mph24.1 kmh 30.37 in1028.4 mb 0.00 in0.0 mm 0.00 in0.0 mm 0.00 in0.0 mm
08:55 AM 29.6°F-1.3°C 14.2°F-9.9°C 52% 14.0 mph NW22.5 kmh NW 17.0 mph27.4 kmh 30.37 in1028.4 mb 0.00 in0.0 mm 0.00 in0.0 mm 0.00 in0.0 mm
08:54 AM 29.6°F-1.3°C 14.2°F-9.9°C 52% 14.0 mph NW22.5 kmh NW 17.0 mph27.4 kmh 30.36 in1028.1 mb 0.00 in0.0 mm 0.00 in0.0 mm 0.00 in0.0 mm
08:53 AM 29.5°F-1.4°C 14.1°F-9.9°C 52% 13.0 mph NW20.9 kmh NW 17.0 mph27.4 kmh 30.36 in1028.1 mb 0.00 in0.0 mm 0.00 in0.0 mm 0.00 in0.0 mm
08:52 AM 29.5°F-1.4°C 14.5°F-9.7°C 53% 13.0 mph NNW20.9 kmh NNW 18.0 mph29.0 kmh 30.36 in1028.1 mb 0.00 in0.0 mm 0.00 in0.0 mm 0.00 in0.0 mm
08:51 AM 29.5°F-1.4°C 14.5°F-9.7°C 53% 14.0 mph NW22.5 kmh NW 20.0 mph32.2 kmh 30.36 in1028.1 mb 0.00 in0.0 mm 0.00 in0.0 mm 0.00 in0.0 mm
08:50 AM 29.5°F-1.4°C 14.5°F-9.7°C 53% 12.0 mph NW19.3 kmh NW 18.0 mph29.0 kmh 30.37 in1028.4 mb 0.00 in0.0 mm 0.00 in0.0 mm 0.00 in0.0 mm
08:49 AM 29.5°F-1.4°C 14.1°F-9.9°C 52% 11.0 mph NW17.7 kmh NW 15.0 mph24.1 kmh 30.36 in1028.1 mb 0.00 in0.0 mm 0.00 in0.0 mm 0.00 in0.0 mm
08:48 AM 29.5°F-1.4°C 14.1°F-9.9°C 52% 12.0 mph NW19.3 kmh NW 17.0 mph27.4 kmh 30.36 in1028.1 mb 0.00 in0.0 mm 0.00 in0.0 mm 0.00 in0.0 mm
08:47 AM 29.5°F-1.4°C 14.1°F-9.9°C 52% 13.0 mph WNW20.9 kmh WNW 18.0 mph29.0 kmh 30.36 in1028.1 mb 0.00 in0.0 mm 0.00 in0.0 mm 0.00 in0.0 mm
08:46 AM 29.5°F-1.4°C 14.1°F-9.9°C 52% 10.0 mph NW16.1 kmh NW 13.0 mph20.9 kmh 30.36 in1028.1 mb 0.00 in0.0 mm 0.00 in0.0 mm 0.00 in0.0 mm
08:45 AM 29.5°F-1.4°C 14.5°F-9.7°C 53% 12.0 mph NW19.3 kmh NW 17.0 mph27.4 kmh 30.36 in1028.1 mb 0.00 in0.0 mm 0.00 in0.0 mm 0.00 in0.0 mm
08:44 AM 29.5°F-1.4°C 14.5°F-9.7°C 53% 10.0 mph NW16.1 kmh NW 15.0 mph24.1 kmh 30.36 in1028.1 mb 0.00 in0.0 mm 0.00 in0.0 mm 0.00 in0.0 mm
08:43 AM 29.4°F-1.4°C 14.4°F-9.8°C 53% 11.0 mph NW17.7 kmh NW 15.0 mph24.1 kmh 30.36 in1028.1 mb 0.00 in0.0 mm 0.00 in0.0 mm 0.00 in0.0 mm
08:42 AM 29.4°F-1.4°C 14.4°F-9.8°C 53% 10.0 mph NNW16.1 kmh NNW 13.0 mph20.9 kmh 30.36 in1028.1 mb 0.00 in0.0 mm 0.00 in0.0 mm 0.00 in0.0 mm
08:41 AM 29.3°F-1.5°C 14.3°F-9.8°C 53% 10.0 mph NW16.1 kmh NW 14.0 mph22.5 kmh 30.36 in1028.1 mb 0.00 in0.0 mm 0.00 in0.0 mm 0.00 in0.0 mm
08:40 AM 29.2°F-1.6°C 14.2°F-9.9°C 53% 8.0 mph WNW12.9 kmh WNW 11.0 mph17.7 kmh 30.36 in1028.1 mb 0.00 in0.0 mm 0.00 in0.0 mm 0.00 in0.0 mm
08:39 AM 29.1°F-1.6°C 14.1°F-9.9°C 53% 11.0 mph NNW17.7 kmh NNW 18.0 mph29.0 kmh 30.36 in1028.1 mb 0.00 in0.0 mm 0.00 in0.0 mm 0.00 in0.0 mm
08:38 AM 29.0°F-1.7°C 14.0°F-10.0°C 53% 12.0 mph NW19.3 kmh NW 16.0 mph25.7 kmh 30.36 in1028.1 mb 0.00 in0.0 mm 0.00 in0.0 mm 0.00 in0.0 mm
08:37 AM 28.9°F-1.7°C 13.9°F-10.1°C 53% 11.0 mph NW17.7 kmh NW 17.0 mph27.4 kmh 30.36 in1028.1 mb 0.00 in0.0 mm 0.00 in0.0 mm 0.00 in0.0 mm
08:36 AM 28.8°F-1.8°C 13.9°F-10.1°C 53% 13.0 mph NW20.9 kmh NW 16.0 mph25.7 kmh 30.36 in1028.1 mb 0.00 in0.0 mm 0.00 in0.0 mm 0.00 in0.0 mm
08:35 AM 28.7°F-1.8°C 14.2°F-9.9°C 54% 9.0 mph NW14.5 kmh NW 14.0 mph22.5 kmh 30.36 in1028.1 mb 0.00 in0.0 mm 0.00 in0.0 mm 0.00 in0.0 mm
08:34 AM 28.6°F-1.9°C 14.1°F-9.9°C 54% 13.0 mph NW20.9 kmh NW 18.0 mph29.0 kmh 30.36 in1028.1 mb 0.00 in0.0 mm 0.00 in0.0 mm 0.00 in0.0 mm
08:33 AM 28.5°F-1.9°C 14.0°F-10.0°C 54% 15.0 mph NW24.1 kmh NW 17.0 mph27.4 kmh 30.36 in1028.1 mb 0.00 in0.0 mm 0.00 in0.0 mm 0.00 in0.0 mm
08:32 AM 28.3°F-2.1°C 13.8°F-10.1°C 54% 13.0 mph NW20.9 kmh NW 18.0 mph29.0 kmh 30.36 in1028.1 mb 0.00 in0.0 mm 0.00 in0.0 mm 0.00 in0.0 mm
08:31 AM 28.2°F-2.1°C 13.7°F-10.2°C 54% 13.0 mph NW20.9 kmh NW 18.0 mph29.0 kmh 30.36 in1028.1 mb 0.00 in0.0 mm 0.00 in0.0 mm 0.00 in0.0 mm
08:30 AM 28.1°F-2.2°C 13.6°F-10.2°C 54% 14.0 mph NW22.5 kmh NW 17.0 mph27.4 kmh 30.36 in1028.1 mb 0.00 in0.0 mm 0.00 in0.0 mm 0.00 in0.0 mm
08:29 AM 28.0°F-2.2°C 13.5°F-10.3°C 54% 14.0 mph NW22.5 kmh NW 17.0 mph27.4 kmh 30.36 in1028.1 mb 0.00 in0.0 mm 0.00 in0.0 mm 0.00 in0.0 mm
08:28 AM 28.0°F-2.2°C 13.5°F-10.3°C 54% 14.0 mph NW22.5 kmh NW 18.0 mph29.0 kmh 30.36 in1028.1 mb 0.00 in0.0 mm 0.00 in0.0 mm 0.00 in0.0 mm
08:27 AM 28.1°F-2.2°C 13.6°F-10.2°C 54% 11.0 mph NW17.7 kmh NW 15.0 mph24.1 kmh 30.36 in1028.1 mb 0.00 in0.0 mm 0.00 in0.0 mm 0.00 in0.0 mm
08:26 AM 28.0°F-2.2°C 13.9°F-10.1°C 55% 10.0 mph WNW16.1 kmh WNW 14.0 mph22.5 kmh 30.35 in1027.8 mb 0.00 in0.0 mm 0.00 in0.0 mm 0.00 in0.0 mm
08:25 AM 28.1°F-2.2°C 13.6°F-10.2°C 54% 10.0 mph WNW16.1 kmh WNW 16.0 mph25.7 kmh 30.35 in1027.8 mb 0.00 in0.0 mm 0.00 in0.0 mm 0.00 in0.0 mm
08:24 AM 28.1°F-2.2°C 13.6°F-10.2°C 54% 11.0 mph WNW17.7 kmh WNW 16.0 mph25.7 kmh 30.35 in1027.8 mb 0.00 in0.0 mm 0.00 in0.0 mm 0.00 in0.0 mm
08:23 AM 28.2°F-2.1°C 13.7°F-10.2°C 54% 9.0 mph W14.5 kmh W 11.0 mph17.7 kmh 30.35 in1027.8 mb 0.00 in0.0 mm 0.00 in0.0 mm 0.00 in0.0 mm
08:22 AM 28.3°F-2.1°C 13.8°F-10.1°C 54% 9.0 mph W14.5 kmh W 12.0 mph19.3 kmh 30.35 in1027.8 mb 0.00 in0.0 mm 0.00 in0.0 mm 0.00 in0.0 mm
08:21 AM 28.4°F-2.0°C 13.9°F-10.1°C 54% 12.0 mph W19.3 kmh W 16.0 mph25.7 kmh 30.34 in1027.4 mb 0.00 in0.0 mm 0.00 in0.0 mm 0.00 in0.0 mm
08:20 AM 28.5°F-1.9°C 14.0°F-10.0°C 54% 12.0 mph WNW19.3 kmh WNW 15.0 mph24.1 kmh 30.34 in1027.4 mb 0.00 in0.0 mm 0.00 in0.0 mm 0.00 in0.0 mm
08:19 AM 28.4°F-2.0°C 13.9°F-10.1°C 54% 9.0 mph WNW14.5 kmh WNW 14.0 mph22.5 kmh 30.34 in1027.4 mb 0.00 in0.0 mm 0.00 in0.0 mm 0.00 in0.0 mm
08:18 AM 28.4°F-2.0°C 13.9°F-10.1°C 54% 10.0 mph WNW16.1 kmh WNW 16.0 mph25.7 kmh 30.34 in1027.4 mb 0.00 in0.0 mm 0.00 in0.0 mm 0.00 in0.0 mm
08:17 AM 28.5°F-1.9°C 14.0°F-10.0°C 54% 12.0 mph WNW19.3 kmh WNW 18.0 mph29.0 kmh 30.34 in1027.4 mb 0.00 in0.0 mm 0.00 in0.0 mm 0.00 in0.0 mm
08:16 AM 28.5°F-1.9°C 14.0°F-10.0°C 54% 11.0 mph WNW17.7 kmh WNW 16.0 mph25.7 kmh 30.34 in1027.4 mb 0.00 in0.0 mm 0.00 in0.0 mm 0.00 in0.0 mm
08:15 AM 28.5°F-1.9°C 14.0°F-10.0°C 54% 9.0 mph WNW14.5 kmh WNW 12.0 mph19.3 kmh 30.34 in1027.4 mb 0.00 in0.0 mm 0.00 in0.0 mm 0.00 in0.0 mm
08:14 AM 28.5°F-1.9°C 14.0°F-10.0°C 54% 10.0 mph WNW16.1 kmh WNW 14.0 mph22.5 kmh 30.34 in1027.4 mb 0.00 in0.0 mm 0.00 in0.0 mm 0.00 in0.0 mm
08:13 AM 28.5°F-1.9°C 14.0°F-10.0°C 54% 11.0 mph WNW17.7 kmh WNW 15.0 mph24.1 kmh 30.34 in1027.4 mb 0.00 in0.0 mm 0.00 in0.0 mm 0.00 in0.0 mm
08:12 AM 28.5°F-1.9°C 14.0°F-10.0°C 54% 12.0 mph W19.3 kmh W 16.0 mph25.7 kmh 30.34 in1027.4 mb 0.00 in0.0 mm 0.00 in0.0 mm 0.00 in0.0 mm
08:11 AM 28.5°F-1.9°C 14.0°F-10.0°C 54% 10.0 mph WNW16.1 kmh WNW 17.0 mph27.4 kmh 30.34 in1027.4 mb 0.00 in0.0 mm 0.00 in0.0 mm 0.00 in0.0 mm
08:10 AM 28.5°F-1.9°C 14.0°F-10.0°C 54% 10.0 mph NW16.1 kmh NW 14.0 mph22.5 kmh 30.33 in1027.1 mb 0.00 in0.0 mm 0.00 in0.0 mm 0.00 in0.0 mm
08:09 AM 28.5°F-1.9°C 14.0°F-10.0°C 54% 9.0 mph WNW14.5 kmh WNW 12.0 mph19.3 kmh 30.34 in1027.4 mb 0.00 in0.0 mm 0.00 in0.0 mm 0.00 in0.0 mm
08:08 AM 28.5°F-1.9°C 14.0°F-10.0°C 54% 11.0 mph WNW17.7 kmh WNW 15.0 mph24.1 kmh 30.33 in1027.1 mb 0.00 in0.0 mm 0.00 in0.0 mm 0.00 in0.0 mm
08:07 AM 28.5°F-1.9°C 13.6°F-10.2°C 53% 12.0 mph WNW19.3 kmh WNW 15.0 mph24.1 kmh 30.34 in1027.4 mb 0.00 in0.0 mm 0.00 in0.0 mm 0.00 in0.0 mm
08:06 AM 28.5°F-1.9°C 13.6°F-10.2°C 53% 13.0 mph NW20.9 kmh NW 17.0 mph27.4 kmh 30.33 in1027.1 mb 0.00 in0.0 mm 0.00 in0.0 mm 0.00 in0.0 mm
08:05 AM 28.5°F-1.9°C 13.6°F-10.2°C 53% 13.0 mph NW20.9 kmh NW 16.0 mph25.7 kmh 30.33 in1027.1 mb 0.00 in0.0 mm 0.00 in0.0 mm 0.00 in0.0 mm
08:04 AM 28.5°F-1.9°C 13.6°F-10.2°C 53% 13.0 mph NW20.9 kmh NW 17.0 mph27.4 kmh 30.33 in1027.1 mb 0.00 in0.0 mm 0.00 in0.0 mm 0.00 in0.0 mm
08:03 AM 28.4°F-2.0°C 13.5°F-10.3°C 53% 13.0 mph NW20.9 kmh NW 17.0 mph27.4 kmh 30.33 in1027.1 mb 0.00 in0.0 mm 0.00 in0.0 mm 0.00 in0.0 mm
08:02 AM 28.4°F-2.0°C 13.5°F-10.3°C 53% 13.0 mph NW20.9 kmh NW 18.0 mph29.0 kmh 30.33 in1027.1 mb 0.00 in0.0 mm 0.00 in0.0 mm 0.00 in0.0 mm
08:01 AM 28.4°F-2.0°C 13.5°F-10.3°C 53% 12.0 mph NW19.3 kmh NW 16.0 mph25.7 kmh 30.33 in1027.1 mb 0.00 in0.0 mm 0.00 in0.0 mm 0.00 in0.0 mm
08:00 AM 28.3°F-2.1°C 13.4°F-10.3°C 53% 12.0 mph NW19.3 kmh NW 15.0 mph24.1 kmh 30.34 in1027.4 mb 0.00 in0.0 mm 0.00 in0.0 mm 0.00 in0.0 mm
07:59 AM 28.3°F-2.1°C 13.0°F-10.6°C 52% 12.0 mph NW19.3 kmh NW 17.0 mph27.4 kmh 30.33 in1027.1 mb 0.00 in0.0 mm 0.00 in0.0 mm 0.00 in0.0 mm
07:58 AM 28.2°F-2.1°C 12.9°F-10.6°C 52% 15.0 mph NW24.1 kmh NW 20.0 mph32.2 kmh 30.34 in1027.4 mb 0.00 in0.0 mm 0.00 in0.0 mm 0.00 in0.0 mm
07:57 AM 28.1°F-2.2°C 13.2°F-10.4°C 53% 17.0 mph NNW27.4 kmh NNW 23.0 mph37.0 kmh 30.33 in1027.1 mb 0.00 in0.0 mm 0.00 in0.0 mm 0.00 in0.0 mm
07:56 AM 28.1°F-2.2°C 13.2°F-10.4°C 53% 14.0 mph NNW22.5 kmh NNW 18.0 mph29.0 kmh 30.33 in1027.1 mb 0.00 in0.0 mm 0.00 in0.0 mm 0.00 in0.0 mm
07:55 AM 28.0°F-2.2°C 12.7°F-10.7°C 52% 12.0 mph NW19.3 kmh NW 15.0 mph24.1 kmh 30.33 in1027.1 mb 0.00 in0.0 mm 0.00 in0.0 mm 0.00 in0.0 mm
07:54 AM 28.0°F-2.2°C 13.1°F-10.5°C 53% 14.0 mph NW22.5 kmh NW 19.0 mph30.6 kmh 30.33 in1027.1 mb 0.00 in0.0 mm 0.00 in0.0 mm 0.00 in0.0 mm
07:53 AM 28.0°F-2.2°C 13.1°F-10.5°C 53% 16.0 mph NW25.7 kmh NW 21.0 mph33.8 kmh 30.34 in1027.4 mb 0.00 in0.0 mm 0.00 in0.0 mm 0.00 in0.0 mm
07:52 AM 28.0°F-2.2°C 13.1°F-10.5°C 53% 11.0 mph NW17.7 kmh NW 15.0 mph24.1 kmh 30.33 in1027.1 mb 0.00 in0.0 mm 0.00 in0.0 mm 0.00 in0.0 mm
07:51 AM 28.1°F-2.2°C 12.8°F-10.7°C 52% 14.0 mph NW22.5 kmh NW 17.0 mph27.4 kmh 30.34 in1027.4 mb 0.00 in0.0 mm 0.00 in0.0 mm 0.00 in0.0 mm
07:50 AM 28.1°F-2.2°C 12.8°F-10.7°C 52% 14.0 mph NW22.5 kmh NW 19.0 mph30.6 kmh 30.33 in1027.1 mb 0.00 in0.0 mm 0.00 in0.0 mm 0.00 in0.0 mm
07:49 AM 28.1°F-2.2°C 12.8°F-10.7°C 52% 16.0 mph NNW25.7 kmh NNW 19.0 mph30.6 kmh 30.33 in1027.1 mb 0.00 in0.0 mm 0.00 in0.0 mm 0.00 in0.0 mm
07:48 AM 28.2°F-2.1°C 12.9°F-10.6°C 52% 16.0 mph NW25.7 kmh NW 20.0 mph32.2 kmh 30.33 in1027.1 mb 0.00 in0.0 mm 0.00 in0.0 mm 0.00 in0.0 mm
07:47 AM 28.2°F-2.1°C 12.9°F-10.6°C 52% 16.0 mph NW25.7 kmh NW 19.0 mph30.6 kmh 30.33 in1027.1 mb 0.00 in0.0 mm 0.00 in0.0 mm 0.00 in0.0 mm
07:46 AM 28.2°F-2.1°C 12.9°F-10.6°C 52% 18.0 mph NW29.0 kmh NW 24.0 mph38.6 kmh 30.33 in1027.1 mb 0.00 in0.0 mm 0.00 in0.0 mm 0.00 in0.0 mm
07:45 AM 28.2°F-2.1°C 12.9°F-10.6°C 52% 16.0 mph NNW25.7 kmh NNW 21.0 mph33.8 kmh 30.33 in1027.1 mb 0.00 in0.0 mm 0.00 in0.0 mm 0.00 in0.0 mm
07:44 AM 28.2°F-2.1°C 12.9°F-10.6°C 52% 16.0 mph NNW25.7 kmh NNW 22.0 mph35.4 kmh 30.33 in1027.1 mb 0.00 in0.0 mm 0.00 in0.0 mm 0.00 in0.0 mm
07:43 AM 28.2°F-2.1°C 12.9°F-10.6°C 52% 17.0 mph NNW27.4 kmh NNW 20.0 mph32.2 kmh 30.33 in1027.1 mb 0.00 in0.0 mm 0.00 in0.0 mm 0.00 in0.0 mm
07:42 AM 28.2°F-2.1°C 12.9°F-10.6°C 52% 20.0 mph NW32.2 kmh NW 25.0 mph40.2 kmh 30.33 in1027.1 mb 0.00 in0.0 mm 0.00 in0.0 mm 0.00 in0.0 mm
07:41 AM 28.3°F-2.1°C 13.0°F-10.6°C 52% 18.0 mph NNW29.0 kmh NNW 22.0 mph35.4 kmh 30.33 in1027.1 mb 0.00 in0.0 mm 0.00 in0.0 mm 0.00 in0.0 mm
07:40 AM 28.2°F-2.1°C 12.9°F-10.6°C 52% 19.0 mph NNW30.6 kmh NNW 25.0 mph40.2 kmh 30.33 in1027.1 mb 0.00 in0.0 mm 0.00 in0.0 mm 0.00 in0.0 mm
07:39 AM 28.2°F-2.1°C 12.9°F-10.6°C 52% 19.0 mph NW30.6 kmh NW 24.0 mph38.6 kmh 30.32 in1026.8 mb 0.00 in0.0 mm 0.00 in0.0 mm 0.00 in0.0 mm
07:38 AM 28.2°F-2.1°C 12.9°F-10.6°C 52% 17.0 mph NNW27.4 kmh NNW 23.0 mph37.0 kmh 30.32 in1026.8 mb 0.00 in0.0 mm 0.00 in0.0 mm 0.00 in0.0 mm
07:37 AM 28.1°F-2.2°C 12.8°F-10.7°C 52% 16.0 mph NNW25.7 kmh NNW 23.0 mph37.0 kmh 30.32 in1026.8 mb 0.00 in0.0 mm 0.00 in0.0 mm 0.00 in0.0 mm
07:36 AM 28.0°F-2.2°C 12.7°F-10.7°C 52% 17.0 mph NW27.4 kmh NW 22.0 mph35.4 kmh 30.32 in1026.8 mb 0.00 in0.0 mm 0.00 in0.0 mm 0.00 in0.0 mm
07:35 AM 28.0°F-2.2°C 13.1°F-10.5°C 53% 14.0 mph NW22.5 kmh NW 20.0 mph32.2 kmh 30.32 in1026.8 mb 0.00 in0.0 mm 0.00 in0.0 mm 0.00 in0.0 mm
07:34 AM 28.0°F-2.2°C 13.1°F-10.5°C 53% 9.0 mph WNW14.5 kmh WNW 12.0 mph19.3 kmh 30.32 in1026.8 mb 0.00 in0.0 mm 0.00 in0.0 mm 0.00 in0.0 mm
07:33 AM 28.1°F-2.2°C 13.2°F-10.4°C 53% 11.0 mph NW17.7 kmh NW 17.0 mph27.4 kmh 30.32 in1026.8 mb 0.00 in0.0 mm 0.00 in0.0 mm 0.00 in0.0 mm
07:32 AM 28.1°F-2.2°C 12.8°F-10.7°C 52% 12.0 mph WNW19.3 kmh WNW 16.0 mph25.7 kmh 30.32 in1026.8 mb 0.00 in0.0 mm 0.00 in0.0 mm 0.00 in0.0 mm
07:31 AM 28.1°F-2.2°C 12.8°F-10.7°C 52% 14.0 mph WNW22.5 kmh WNW 18.0 mph29.0 kmh 30.32 in1026.8 mb 0.00 in0.0 mm 0.00 in0.0 mm 0.00 in0.0 mm
07:30 AM 28.1°F-2.2°C 12.8°F-10.7°C 52% 13.0 mph NW20.9 kmh NW 17.0 mph27.4 kmh 30.32 in1026.8 mb 0.00 in0.0 mm 0.00 in0.0 mm 0.00 in0.0 mm
07:29 AM 28.1°F-2.2°C 12.8°F-10.7°C 52% 13.0 mph NW20.9 kmh NW 18.0 mph29.0 kmh 30.31 in1026.4 mb 0.00 in0.0 mm 0.00 in0.0 mm 0.00 in0.0 mm
07:28 AM 28.1°F-2.2°C 12.8°F-10.7°C 52% 11.0 mph NW17.7 kmh NW 15.0 mph24.1 kmh 30.32 in1026.8 mb 0.00 in0.0 mm 0.00 in0.0 mm 0.00 in0.0 mm
07:27 AM 28.1°F-2.2°C 12.8°F-10.7°C 52% 12.0 mph NW19.3 kmh NW 17.0 mph27.4 kmh 30.32 in1026.8 mb 0.00 in0.0 mm 0.00 in0.0 mm 0.00 in0.0 mm
07:26 AM 28.1°F-2.2°C 12.8°F-10.7°C 52% 14.0 mph NW22.5 kmh NW 20.0 mph32.2 kmh 30.32 in1026.8 mb 0.00 in0.0 mm 0.00 in0.0 mm 0.00 in0.0 mm
07:25 AM 28.1°F-2.2°C 12.8°F-10.7°C 52% 14.0 mph NW22.5 kmh NW 19.0 mph30.6 kmh 30.31 in1026.4 mb 0.00 in0.0 mm 0.00 in0.0 mm 0.00 in0.0 mm
07:24 AM 28.2°F-2.1°C 12.4°F-10.9°C 51% 12.0 mph NW19.3 kmh NW 15.0 mph24.1 kmh 30.32 in1026.8 mb 0.00 in0.0 mm 0.00 in0.0 mm 0.00 in0.0 mm
07:23 AM 28.3°F-2.1°C 12.5°F-10.8°C 51% 14.0 mph NW22.5 kmh NW 18.0 mph29.0 kmh 30.31 in1026.4 mb 0.00 in0.0 mm 0.00 in0.0 mm 0.00 in0.0 mm
07:22 AM 28.3°F-2.1°C 12.5°F-10.8°C 51% 12.0 mph WNW19.3 kmh WNW 17.0 mph27.4 kmh 30.31 in1026.4 mb 0.00 in0.0 mm 0.00 in0.0 mm 0.00 in0.0 mm
07:21 AM 28.3°F-2.1°C 12.5°F-10.8°C 51% 16.0 mph NW25.7 kmh NW 21.0 mph33.8 kmh 30.31 in1026.4 mb 0.00 in0.0 mm 0.00 in0.0 mm 0.00 in0.0 mm
07:20 AM 28.2°F-2.1°C 12.4°F-10.9°C 51% 10.0 mph NNW16.1 kmh NNW 20.0 mph32.2 kmh 30.31 in1026.4 mb 0.00 in0.0 mm 0.00 in0.0 mm 0.00 in0.0 mm
07:19 AM 28.3°F-2.1°C 12.5°F-10.8°C 51% 10.0 mph NW16.1 kmh NW 15.0 mph24.1 kmh 30.31 in1026.4 mb 0.00 in0.0 mm 0.00 in0.0 mm 0.00 in0.0 mm
07:18 AM 28.2°F-2.1°C 12.0°F-11.1°C 50% 11.0 mph NW17.7 kmh NW 14.0 mph22.5 kmh 30.30 in1026.1 mb 0.00 in0.0 mm 0.00 in0.0 mm 0.00 in0.0 mm
07:17 AM 28.2°F-2.1°C 12.4°F-10.9°C 51% 9.0 mph NW14.5 kmh NW 13.0 mph20.9 kmh 30.30 in1026.1 mb 0.00 in0.0 mm 0.00 in0.0 mm 0.00 in0.0 mm
07:16 AM 28.2°F-2.1°C 12.4°F-10.9°C 51% 4.0 mph 6.4 kmh 6.0 mph9.7 kmh 30.30 in1026.1 mb 0.00 in0.0 mm 0.00 in0.0 mm 0.00 in0.0 mm
07:15 AM 28.2°F-2.1°C 12.4°F-10.9°C 51% 5.0 mph NW8.0 kmh NW 8.0 mph12.9 kmh 30.30 in1026.1 mb 0.00 in0.0 mm 0.00 in0.0 mm 0.00 in0.0 mm
07:14 AM 28.1°F-2.2°C 12.3°F-10.9°C 51% 9.0 mph NNW14.5 kmh NNW 14.0 mph22.5 kmh 30.30 in1026.1 mb 0.00 in0.0 mm 0.00 in0.0 mm 0.00 in0.0 mm
07:13 AM 28.1°F-2.2°C 12.3°F-10.9°C 51% 11.0 mph NNW17.7 kmh NNW 14.0 mph22.5 kmh 30.30 in1026.1 mb 0.00 in0.0 mm 0.00 in0.0 mm 0.00 in0.0 mm
07:12 AM 28.1°F-2.2°C 12.8°F-10.7°C 52% 4.0 mph W6.4 kmh W 7.0 mph11.3 kmh 30.30 in1026.1 mb 0.00 in0.0 mm 0.00 in0.0 mm 0.00 in0.0 mm
07:11 AM 28.3°F-2.1°C 12.5°F-10.8°C 51% 5.0 mph NNW8.0 kmh NNW 8.0 mph12.9 kmh 30.30 in1026.1 mb 0.00 in0.0 mm 0.00 in0.0 mm 0.00 in0.0 mm
07:10 AM 28.3°F-2.1°C 12.5°F-10.8°C 51% 8.0 mph NW12.9 kmh NW 11.0 mph17.7 kmh 30.30 in1026.1 mb 0.00 in0.0 mm 0.00 in0.0 mm 0.00 in0.0 mm
07:09 AM 28.3°F-2.1°C 12.5°F-10.8°C 51% 8.0 mph NNW12.9 kmh NNW 15.0 mph24.1 kmh 30.30 in1026.1 mb 0.00 in0.0 mm 0.00 in0.0 mm 0.00 in0.0 mm
07:08 AM 28.3°F-2.1°C 12.5°F-10.8°C 51% 9.0 mph WNW14.5 kmh WNW 15.0 mph24.1 kmh 30.30 in1026.1 mb 0.00 in0.0 mm 0.00 in0.0 mm 0.00 in0.0 mm
07:07 AM 28.4°F-2.0°C 12.6°F-10.8°C 51% 8.0 mph NW12.9 kmh NW 11.0 mph17.7 kmh 30.30 in1026.1 mb 0.00 in0.0 mm 0.00 in0.0 mm 0.00 in0.0 mm
07:06 AM 28.4°F-2.0°C 12.6°F-10.8°C 51% 10.0 mph NNW16.1 kmh NNW 14.0 mph22.5 kmh 30.30 in1026.1 mb 0.00 in0.0 mm 0.00 in0.0 mm 0.00 in0.0 mm
07:05 AM 28.3°F-2.1°C 12.5°F-10.8°C 51% 9.0 mph NNW14.5 kmh NNW 16.0 mph25.7 kmh 30.30 in1026.1 mb 0.00 in0.0 mm 0.00 in0.0 mm 0.00 in0.0 mm
07:04 AM 28.3°F-2.1°C 12.5°F-10.8°C 51% 10.0 mph NW16.1 kmh NW 17.0 mph27.4 kmh 30.30 in1026.1 mb 0.00 in0.0 mm 0.00 in0.0 mm 0.00 in0.0 mm
07:03 AM 28.3°F-2.1°C 12.5°F-10.8°C 51% 10.0 mph NNW16.1 kmh NNW 12.0 mph19.3 kmh 30.29 in1025.7 mb 0.00 in0.0 mm 0.00 in0.0 mm 0.00 in0.0 mm
07:02 AM 28.4°F-2.0°C 12.6°F-10.8°C 51% 9.0 mph NW14.5 kmh NW 13.0 mph20.9 kmh 30.29 in1025.7 mb 0.00 in0.0 mm 0.00 in0.0 mm 0.00 in0.0 mm
07:01 AM 28.4°F-2.0°C 12.6°F-10.8°C 51% 9.0 mph NNW14.5 kmh NNW 11.0 mph17.7 kmh 30.29 in1025.7 mb 0.00 in0.0 mm 0.00 in0.0 mm 0.00 in0.0 mm
07:00 AM 28.4°F-2.0°C 12.6°F-10.8°C 51% 11.0 mph NW17.7 kmh NW 14.0 mph22.5 kmh 30.29 in1025.7 mb 0.00 in0.0 mm 0.00 in0.0 mm 0.00 in0.0 mm
06:59 AM 28.3°F-2.1°C 12.5°F-10.8°C 51% 9.0 mph WNW14.5 kmh WNW 12.0 mph19.3 kmh 30.29 in1025.7 mb 0.00 in0.0 mm 0.00 in0.0 mm 0.00 in0.0 mm
06:58 AM 28.4°F-2.0°C 12.6°F-10.8°C 51% 12.0 mph NW19.3 kmh NW 15.0 mph24.1 kmh 30.29 in1025.7 mb 0.00 in0.0 mm 0.00 in0.0 mm 0.00 in0.0 mm
06:57 AM 28.4°F-2.0°C 12.6°F-10.8°C 51% 13.0 mph NNW20.9 kmh NNW 17.0 mph27.4 kmh 30.29 in1025.7 mb 0.00 in0.0 mm 0.00 in0.0 mm 0.00 in0.0 mm
06:56 AM 28.4°F-2.0°C 12.6°F-10.8°C 51% 10.0 mph NNW16.1 kmh NNW 12.0 mph19.3 kmh 30.29 in1025.7 mb 0.00 in0.0 mm 0.00 in0.0 mm 0.00 in0.0 mm
06:55 AM 28.5°F-1.9°C 12.7°F-10.7°C 51% 9.0 mph NW14.5 kmh NW 14.0 mph22.5 kmh 30.29 in1025.7 mb 0.00 in0.0 mm 0.00 in0.0 mm 0.00 in0.0 mm
06:54 AM 28.5°F-1.9°C 12.7°F-10.7°C 51% 12.0 mph NNW19.3 kmh NNW 15.0 mph24.1 kmh 30.29 in1025.7 mb 0.00 in0.0 mm 0.00 in0.0 mm 0.00 in0.0 mm
06:53 AM 28.5°F-1.9°C 12.7°F-10.7°C 51% 10.0 mph NW16.1 kmh NW 12.0 mph19.3 kmh 30.29 in1025.7 mb 0.00 in0.0 mm 0.00 in0.0 mm 0.00 in0.0 mm
06:52 AM 28.6°F-1.9°C 12.8°F-10.7°C 51% 15.0 mph NNW24.1 kmh NNW 20.0 mph32.2 kmh 30.29 in1025.7 mb 0.00 in0.0 mm 0.00 in0.0 mm 0.00 in0.0 mm
06:51 AM 28.6°F-1.9°C 12.3°F-10.9°C 50% 14.0 mph NNW22.5 kmh NNW 18.0 mph29.0 kmh 30.29 in1025.7 mb 0.00 in0.0 mm 0.00 in0.0 mm 0.00 in0.0 mm
06:50 AM 28.6°F-1.9°C 12.3°F-10.9°C 50% 12.0 mph NW19.3 kmh NW 16.0 mph25.7 kmh 30.28 in1025.4 mb 0.00 in0.0 mm 0.00 in0.0 mm 0.00 in0.0 mm
06:49 AM 28.7°F-1.8°C 12.4°F-10.9°C 50% 11.0 mph NW17.7 kmh NW 16.0 mph25.7 kmh 30.28 in1025.4 mb 0.00 in0.0 mm 0.00 in0.0 mm 0.00 in0.0 mm
06:48 AM 28.8°F-1.8°C 12.5°F-10.8°C 50% 10.0 mph NW16.1 kmh NW 13.0 mph20.9 kmh 30.28 in1025.4 mb 0.00 in0.0 mm 0.00 in0.0 mm 0.00 in0.0 mm
06:47 AM 28.8°F-1.8°C 12.5°F-10.8°C 50% 12.0 mph NW19.3 kmh NW 18.0 mph29.0 kmh 30.28 in1025.4 mb 0.00 in0.0 mm 0.00 in0.0 mm 0.00 in0.0 mm
06:46 AM 28.8°F-1.8°C 12.5°F-10.8°C 50% 14.0 mph NNW22.5 kmh NNW 18.0 mph29.0 kmh 30.28 in1025.4 mb 0.00 in0.0 mm 0.00 in0.0 mm 0.00 in0.0 mm
06:45 AM 28.8°F-1.8°C 12.5°F-10.8°C 50% 13.0 mph NNW20.9 kmh NNW 18.0 mph29.0 kmh 30.28 in1025.4 mb 0.00 in0.0 mm 0.00 in0.0 mm 0.00 in0.0 mm
06:44 AM 28.8°F-1.8°C 12.5°F-10.8°C 50% 15.0 mph NW24.1 kmh NW 20.0 mph32.2 kmh 30.27 in1025.1 mb 0.00 in0.0 mm 0.00 in0.0 mm 0.00 in0.0 mm
06:43 AM 28.8°F-1.8°C 12.5°F-10.8°C 50% 14.0 mph NW22.5 kmh NW 20.0 mph32.2 kmh 30.27 in1025.1 mb 0.00 in0.0 mm 0.00 in0.0 mm 0.00 in0.0 mm
06:42 AM 28.8°F-1.8°C 12.5°F-10.8°C 50% 15.0 mph WNW24.1 kmh WNW 18.0 mph29.0 kmh 30.27 in1025.1 mb 0.00 in0.0 mm 0.00 in0.0 mm 0.00 in0.0 mm
06:41 AM 28.7°F-1.8°C 12.4°F-10.9°C 50% 13.0 mph NW20.9 kmh NW 19.0 mph30.6 kmh 30.27 in1025.1 mb 0.00 in0.0 mm 0.00 in0.0 mm 0.00 in0.0 mm
06:40 AM 28.7°F-1.8°C 12.4°F-10.9°C 50% 10.0 mph WNW16.1 kmh WNW 16.0 mph25.7 kmh 30.27 in1025.1 mb 0.00 in0.0 mm 0.00 in0.0 mm 0.00 in0.0 mm
06:39 AM 28.8°F-1.8°C 12.5°F-10.8°C 50% 14.0 mph NW22.5 kmh NW 19.0 mph30.6 kmh 30.27 in1025.1 mb 0.00 in0.0 mm 0.00 in0.0 mm 0.00 in0.0 mm
06:38 AM 28.8°F-1.8°C 12.5°F-10.8°C 50% 14.0 mph NW22.5 kmh NW 19.0 mph30.6 kmh 30.27 in1025.1 mb 0.00 in0.0 mm 0.00 in0.0 mm 0.00 in0.0 mm
06:37 AM 28.8°F-1.8°C 12.5°F-10.8°C 50% 13.0 mph NW20.9 kmh NW 16.0 mph25.7 kmh 30.27 in1025.1 mb 0.00 in0.0 mm 0.00 in0.0 mm 0.00 in0.0 mm
06:36 AM 28.8°F-1.8°C 12.1°F-11.1°C 49% 12.0 mph NW19.3 kmh NW 17.0 mph27.4 kmh 30.27 in1025.1 mb 0.00 in0.0 mm 0.00 in0.0 mm 0.00 in0.0 mm
06:35 AM 28.8°F-1.8°C 12.1°F-11.1°C 49% 12.0 mph NNW19.3 kmh NNW 16.0 mph25.7 kmh 30.27 in1025.1 mb 0.00 in0.0 mm 0.00 in0.0 mm 0.00 in0.0 mm
06:34 AM 28.9°F-1.7°C 12.2°F-11.0°C 49% 11.0 mph NW17.7 kmh NW 15.0 mph24.1 kmh 30.27 in1025.1 mb 0.00 in0.0 mm 0.00 in0.0 mm 0.00 in0.0 mm
06:33 AM 29.0°F-1.7°C 12.3°F-10.9°C 49% 9.0 mph WNW14.5 kmh WNW 11.0 mph17.7 kmh 30.27 in1025.1 mb 0.00 in0.0 mm 0.00 in0.0 mm 0.00 in0.0 mm
06:32 AM 29.0°F-1.7°C 12.3°F-10.9°C 49% 10.0 mph NW16.1 kmh NW 12.0 mph19.3 kmh 30.28 in1025.4 mb 0.00 in0.0 mm 0.00 in0.0 mm 0.00 in0.0 mm
06:31 AM 29.0°F-1.7°C 11.8°F-11.2°C 48% 12.0 mph NNW19.3 kmh NNW 17.0 mph27.4 kmh 30.27 in1025.1 mb 0.00 in0.0 mm 0.00 in0.0 mm 0.00 in0.0 mm
06:30 AM 29.0°F-1.7°C 11.8°F-11.2°C 48% 14.0 mph NNW22.5 kmh NNW 19.0 mph30.6 kmh 30.27 in1025.1 mb 0.00 in0.0 mm 0.00 in0.0 mm 0.00 in0.0 mm
06:29 AM 28.9°F-1.7°C 12.2°F-11.0°C 49% 12.0 mph NW19.3 kmh NW 16.0 mph25.7 kmh 30.27 in1025.1 mb 0.00 in0.0 mm 0.00 in0.0 mm 0.00 in0.0 mm
06:28 AM 28.8°F-1.8°C 12.1°F-11.1°C 49% 9.0 mph NNW14.5 kmh NNW 13.0 mph20.9 kmh 30.27 in1025.1 mb 0.00 in0.0 mm 0.00 in0.0 mm 0.00 in0.0 mm
06:27 AM 28.8°F-1.8°C 12.1°F-11.1°C 49% 9.0 mph NNW14.5 kmh NNW 17.0 mph27.4 kmh 30.27 in1025.1 mb 0.00 in0.0 mm 0.00 in0.0 mm 0.00 in0.0 mm
06:26 AM 28.7°F-1.8°C 12.0°F-11.1°C 49% 13.0 mph NNW20.9 kmh NNW 15.0 mph24.1 kmh 30.27 in1025.1 mb 0.00 in0.0 mm 0.00 in0.0 mm 0.00 in0.0 mm
06:25 AM 28.6°F-1.9°C 11.9°F-11.2°C 49% 13.0 mph NNW20.9 kmh NNW 19.0 mph30.6 kmh 30.27 in1025.1 mb 0.00 in0.0 mm 0.00 in0.0 mm 0.00 in0.0 mm
06:24 AM 28.5°F-1.9°C 11.8°F-11.2°C 49% 10.0 mph NNW16.1 kmh NNW 16.0 mph25.7 kmh 30.27 in1025.1 mb 0.00 in0.0 mm 0.00 in0.0 mm 0.00 in0.0 mm
06:23 AM 28.4°F-2.0°C 11.7°F-11.3°C 49% 12.0 mph NW19.3 kmh NW 15.0 mph24.1 kmh 30.27 in1025.1 mb 0.00 in0.0 mm 0.00 in0.0 mm 0.00 in0.0 mm
06:22 AM 28.3°F-2.1°C 12.1°F-11.1°C 50% 7.0 mph NW11.3 kmh NW 14.0 mph22.5 kmh 30.27 in1025.1 mb 0.00 in0.0 mm 0.00 in0.0 mm 0.00 in0.0 mm
06:21 AM 28.2°F-2.1°C 12.0°F-11.1°C 50% 6.0 mph NNW9.7 kmh NNW 9.0 mph14.5 kmh 30.27 in1025.1 mb 0.00 in0.0 mm 0.00 in0.0 mm 0.00 in0.0 mm
06:20 AM 28.1°F-2.2°C 11.9°F-11.2°C 50% 6.0 mph WNW9.7 kmh WNW 9.0 mph14.5 kmh 30.27 in1025.1 mb 0.00 in0.0 mm 0.00 in0.0 mm 0.00 in0.0 mm
06:19 AM 28.1°F-2.2°C 11.9°F-11.2°C 50% 7.0 mph NW11.3 kmh NW 9.0 mph14.5 kmh 30.27 in1025.1 mb 0.00 in0.0 mm 0.00 in0.0 mm 0.00 in0.0 mm
06:18 AM 28.1°F-2.2°C 12.3°F-10.9°C 51% 6.0 mph WNW9.7 kmh WNW 9.0 mph14.5 kmh 30.27 in1025.1 mb 0.00 in0.0 mm 0.00 in0.0 mm 0.00 in0.0 mm
06:17 AM 28.0°F-2.2°C 12.2°F-11.0°C 51% 2.0 mph NW3.2 kmh NW 3.0 mph4.8 kmh 30.27 in1025.1 mb 0.00 in0.0 mm 0.00 in0.0 mm 0.00 in0.0 mm
06:16 AM 28.1°F-2.2°C 12.3°F-10.9°C 51% 3.0 mph NW4.8 kmh NW 4.0 mph6.4 kmh 30.27 in1025.1 mb 0.00 in0.0 mm 0.00 in0.0 mm 0.00 in0.0 mm
06:15 AM 28.1°F-2.2°C 12.3°F-10.9°C 51% 5.0 mph WNW8.0 kmh WNW 7.0 mph11.3 kmh 30.27 in1025.1 mb 0.00 in0.0 mm 0.00 in0.0 mm 0.00 in0.0 mm
06:14 AM 28.1°F-2.2°C 12.3°F-10.9°C 51% 5.0 mph NW8.0 kmh NW 7.0 mph11.3 kmh 30.27 in1025.1 mb 0.00 in0.0 mm 0.00 in0.0 mm 0.00 in0.0 mm
06:13 AM 28.1°F-2.2°C 12.3°F-10.9°C 51% 6.0 mph WNW9.7 kmh WNW 9.0 mph14.5 kmh 30.27 in1025.1 mb 0.00 in0.0 mm 0.00 in0.0 mm 0.00 in0.0 mm
06:12 AM 28.1°F-2.2°C 12.3°F-10.9°C 51% 6.0 mph NW9.7 kmh NW 9.0 mph14.5 kmh 30.27 in1025.1 mb 0.00 in0.0 mm 0.00 in0.0 mm 0.00 in0.0 mm
06:11 AM 28.1°F-2.2°C 12.3°F-10.9°C 51% 7.0 mph NW11.3 kmh NW 10.0 mph16.1 kmh 30.27 in1025.1 mb 0.00 in0.0 mm 0.00 in0.0 mm 0.00 in0.0 mm
06:10 AM 28.2°F-2.1°C 12.4°F-10.9°C 51% 8.0 mph NW12.9 kmh NW 10.0 mph16.1 kmh 30.27 in1025.1 mb 0.00 in0.0 mm 0.00 in0.0 mm 0.00 in0.0 mm
06:09 AM 28.2°F-2.1°C 12.4°F-10.9°C 51% 7.0 mph NNW11.3 kmh NNW 10.0 mph16.1 kmh 30.26 in1024.7 mb 0.00 in0.0 mm 0.00 in0.0 mm 0.00 in0.0 mm
06:08 AM 28.2°F-2.1°C 12.4°F-10.9°C 51% 7.0 mph NW11.3 kmh NW 10.0 mph16.1 kmh 30.26 in1024.7 mb 0.00 in0.0 mm 0.00 in0.0 mm 0.00 in0.0 mm
06:07 AM 28.2°F-2.1°C 12.4°F-10.9°C 51% 5.0 mph NW8.0 kmh NW 8.0 mph12.9 kmh 30.26 in1024.7 mb 0.00 in0.0 mm 0.00 in0.0 mm 0.00 in0.0 mm
06:06 AM 28.2°F-2.1°C 12.4°F-10.9°C 51% 7.0 mph WNW11.3 kmh WNW 9.0 mph14.5 kmh 30.26 in1024.7 mb 0.00 in0.0 mm 0.00 in0.0 mm 0.00 in0.0 mm
06:05 AM 28.3°F-2.1°C 12.5°F-10.8°C 51% 5.0 mph W8.0 kmh W 11.0 mph17.7 kmh 30.26 in1024.7 mb 0.00 in0.0 mm 0.00 in0.0 mm 0.00 in0.0 mm
06:04 AM 28.3°F-2.1°C 12.5°F-10.8°C 51% 5.0 mph WNW8.0 kmh WNW 8.0 mph12.9 kmh 30.26 in1024.7 mb 0.00 in0.0 mm 0.00 in0.0 mm 0.00 in0.0 mm
06:03 AM 28.5°F-1.9°C 12.7°F-10.7°C 51% 7.0 mph WNW11.3 kmh WNW 10.0 mph16.1 kmh 30.25 in1024.4 mb 0.00 in0.0 mm 0.00 in0.0 mm 0.00 in0.0 mm
06:02 AM 28.5°F-1.9°C 12.7°F-10.7°C 51% 8.0 mph W12.9 kmh W 11.0 mph17.7 kmh 30.25 in1024.4 mb 0.00 in0.0 mm 0.00 in0.0 mm 0.00 in0.0 mm
06:01 AM 28.5°F-1.9°C 12.7°F-10.7°C 51% 9.0 mph NW14.5 kmh NW 15.0 mph24.1 kmh 30.25 in1024.4 mb 0.00 in0.0 mm 0.00 in0.0 mm 0.00 in0.0 mm
06:00 AM 28.6°F-1.9°C 12.8°F-10.7°C 51% 9.0 mph WNW14.5 kmh WNW 13.0 mph20.9 kmh 30.25 in1024.4 mb 0.00 in0.0 mm 0.00 in0.0 mm 0.00 in0.0 mm
05:59 AM 28.7°F-1.8°C 12.4°F-10.9°C 50% 9.0 mph WNW14.5 kmh WNW 14.0 mph22.5 kmh 30.25 in1024.4 mb 0.00 in0.0 mm 0.00 in0.0 mm 0.00 in0.0 mm
05:58 AM 28.8°F-1.8°C 12.5°F-10.8°C 50% 12.0 mph WNW19.3 kmh WNW 19.0 mph30.6 kmh 30.25 in1024.4 mb 0.00 in0.0 mm 0.00 in0.0 mm 0.00 in0.0 mm
05:57 AM 28.8°F-1.8°C 12.5°F-10.8°C 50% 9.0 mph W14.5 kmh W 12.0 mph19.3 kmh 30.26 in1024.7 mb 0.00 in0.0 mm 0.00 in0.0 mm 0.00 in0.0 mm
05:56 AM 28.9°F-1.7°C 12.6°F-10.8°C 50% 11.0 mph NW17.7 kmh NW 15.0 mph24.1 kmh 30.26 in1024.7 mb 0.00 in0.0 mm 0.00 in0.0 mm 0.00 in0.0 mm
05:55 AM 29.0°F-1.7°C 12.3°F-10.9°C 49% 9.0 mph WNW14.5 kmh WNW 11.0 mph17.7 kmh 30.26 in1024.7 mb 0.00 in0.0 mm 0.00 in0.0 mm 0.00 in0.0 mm
05:54 AM 29.2°F-1.6°C 12.4°F-10.9°C 49% 10.0 mph WNW16.1 kmh WNW 13.0 mph20.9 kmh 30.26 in1024.7 mb 0.00 in0.0 mm 0.00 in0.0 mm 0.00 in0.0 mm
05:53 AM 29.3°F-1.5°C 12.1°F-11.1°C 48% 11.0 mph NW17.7 kmh NW 15.0 mph24.1 kmh 30.26 in1024.7 mb 0.00 in0.0 mm 0.00 in0.0 mm 0.00 in0.0 mm
05:52 AM 29.4°F-1.4°C 12.2°F-11.0°C 48% 13.0 mph NW20.9 kmh NW 18.0 mph29.0 kmh 30.26 in1024.7 mb 0.00 in0.0 mm 0.00 in0.0 mm 0.00 in0.0 mm
05:51 AM 29.4°F-1.4°C 12.2°F-11.0°C 48% 10.0 mph NW16.1 kmh NW 18.0 mph29.0 kmh 30.26 in1024.7 mb 0.00 in0.0 mm 0.00 in0.0 mm 0.00 in0.0 mm
05:50 AM 29.6°F-1.3°C 12.3°F-10.9°C 48% 9.0 mph NW14.5 kmh NW 11.0 mph17.7 kmh 30.26 in1024.7 mb 0.00 in0.0 mm 0.00 in0.0 mm 0.00 in0.0 mm
05:49 AM 29.7°F-1.3°C 12.0°F-11.1°C 47% 8.0 mph NW12.9 kmh NW 13.0 mph20.9 kmh 30.26 in1024.7 mb 0.00 in0.0 mm 0.00 in0.0 mm 0.00 in0.0 mm
05:48 AM 29.8°F-1.2°C 12.1°F-11.1°C 47% 11.0 mph NW17.7 kmh NW 14.0 mph22.5 kmh 30.26 in1024.7 mb 0.00 in0.0 mm 0.00 in0.0 mm 0.00 in0.0 mm
05:47 AM 29.9°F-1.2°C 12.1°F-11.1°C 47% 10.0 mph NW16.1 kmh NW 13.0 mph20.9 kmh 30.26 in1024.7 mb 0.00 in0.0 mm 0.00 in0.0 mm 0.00 in0.0 mm
05:46 AM 29.9°F-1.2°C 11.7°F-11.3°C 46% 12.0 mph NW19.3 kmh NW 17.0 mph27.4 kmh 30.26 in1024.7 mb 0.00 in0.0 mm 0.00 in0.0 mm 0.00 in0.0 mm
05:45 AM 30.0°F-1.1°C 11.3°F-11.5°C 45% 11.0 mph NNW17.7 kmh NNW 16.0 mph25.7 kmh 30.26 in1024.7 mb 0.00 in0.0 mm 0.00 in0.0 mm 0.00 in0.0 mm
05:44 AM 30.0°F-1.1°C 11.8°F-11.2°C 46% 13.0 mph NNW20.9 kmh NNW 17.0 mph27.4 kmh 30.27 in1025.1 mb 0.00 in0.0 mm 0.00 in0.0 mm 0.00 in0.0 mm
05:43 AM 29.9°F-1.2°C 11.7°F-11.3°C 46% 13.0 mph NNW20.9 kmh NNW 19.0 mph30.6 kmh 30.26 in1024.7 mb 0.00 in0.0 mm 0.00 in0.0 mm 0.00 in0.0 mm
05:42 AM 30.0°F-1.1°C 11.8°F-11.2°C 46% 12.0 mph NNW19.3 kmh NNW 17.0 mph27.4 kmh 30.27 in1025.1 mb 0.00 in0.0 mm 0.00 in0.0 mm 0.00 in0.0 mm
05:41 AM 30.1°F-1.1°C 11.8°F-11.2°C 46% 13.0 mph NNW20.9 kmh NNW 17.0 mph27.4 kmh 30.27 in1025.1 mb 0.00 in0.0 mm 0.00 in0.0 mm 0.00 in0.0 mm
05:40 AM 30.1°F-1.1°C 11.4°F-11.4°C 45% 14.0 mph NNW22.5 kmh NNW 18.0 mph29.0 kmh 30.27 in1025.1 mb 0.00 in0.0 mm 0.00 in0.0 mm 0.00 in0.0 mm
05:39 AM 30.0°F-1.1°C 11.3°F-11.5°C 45% 17.0 mph NNW27.4 kmh NNW 21.0 mph33.8 kmh 30.27 in1025.1 mb 0.00 in0.0 mm 0.00 in0.0 mm 0.00 in0.0 mm
05:38 AM 30.0°F-1.1°C 11.8°F-11.2°C 46% 13.0 mph NNW20.9 kmh NNW 19.0 mph30.6 kmh 30.27 in1025.1 mb 0.00 in0.0 mm 0.00 in0.0 mm 0.00 in0.0 mm
05:37 AM 30.1°F-1.1°C 11.8°F-11.2°C 46% 15.0 mph NNW24.1 kmh NNW 19.0 mph30.6 kmh 30.26 in1024.7 mb 0.00 in0.0 mm 0.00 in0.0 mm 0.00 in0.0 mm
05:36 AM 30.1°F-1.1°C 12.3°F-10.9°C 47% 16.0 mph NW25.7 kmh NW 24.0 mph38.6 kmh 30.26 in1024.7 mb 0.00 in0.0 mm 0.00 in0.0 mm 0.00 in0.0 mm
05:35 AM 30.1°F-1.1°C 12.3°F-10.9°C 47% 14.0 mph NW22.5 kmh NW 17.0 mph27.4 kmh 30.26 in1024.7 mb 0.00 in0.0 mm 0.00 in0.0 mm 0.00 in0.0 mm
05:34 AM 30.1°F-1.1°C 11.8°F-11.2°C 46% 18.0 mph NNW29.0 kmh NNW 25.0 mph40.2 kmh 30.26 in1024.7 mb 0.00 in0.0 mm 0.00 in0.0 mm 0.00 in0.0 mm
05:33 AM 30.2°F-1.0°C 11.9°F-11.2°C 46% 15.0 mph NNW24.1 kmh NNW 19.0 mph30.6 kmh 30.26 in1024.7 mb 0.00 in0.0 mm 0.00 in0.0 mm 0.00 in0.0 mm
05:32 AM 30.2°F-1.0°C 11.9°F-11.2°C 46% 17.0 mph NNW27.4 kmh NNW 23.0 mph37.0 kmh 30.26 in1024.7 mb 0.00 in0.0 mm 0.00 in0.0 mm 0.00 in0.0 mm
05:31 AM 30.2°F-1.0°C 11.9°F-11.2°C 46% 15.0 mph NNW24.1 kmh NNW 19.0 mph30.6 kmh 30.26 in1024.7 mb 0.00 in0.0 mm 0.00 in0.0 mm 0.00 in0.0 mm
05:30 AM 30.3°F-0.9°C 12.0°F-11.1°C 46% 14.0 mph NNW22.5 kmh NNW 18.0 mph29.0 kmh 30.26 in1024.7 mb 0.00 in0.0 mm 0.00 in0.0 mm 0.00 in0.0 mm
05:29 AM 30.3°F-0.9°C 12.0°F-11.1°C 46% 15.0 mph NW24.1 kmh NW 20.0 mph32.2 kmh 30.26 in1024.7 mb 0.00 in0.0 mm 0.00 in0.0 mm 0.00 in0.0 mm
05:28 AM 30.4°F-0.9°C 12.1°F-11.1°C 46% 16.0 mph NNW25.7 kmh NNW 20.0 mph32.2 kmh 30.26 in1024.7 mb 0.00 in0.0 mm 0.00 in0.0 mm 0.00 in0.0 mm
05:27 AM 30.4°F-0.9°C 12.1°F-11.1°C 46% 18.0 mph NNW29.0 kmh NNW 22.0 mph35.4 kmh 30.26 in1024.7 mb 0.00 in0.0 mm 0.00 in0.0 mm 0.00 in0.0 mm
05:26 AM 30.5°F-0.8°C 12.2°F-11.0°C 46% 16.0 mph WNW25.7 kmh WNW 21.0 mph33.8 kmh 30.26 in1024.7 mb 0.00 in0.0 mm 0.00 in0.0 mm 0.00 in0.0 mm
05:25 AM 30.5°F-0.8°C 12.2°F-11.0°C 46% 20.0 mph NNW32.2 kmh NNW 24.0 mph38.6 kmh 30.26 in1024.7 mb 0.00 in0.0 mm 0.00 in0.0 mm 0.00 in0.0 mm
05:24 AM 30.5°F-0.8°C 11.7°F-11.3°C 45% 18.0 mph NNW29.0 kmh NNW 23.0 mph37.0 kmh 30.26 in1024.7 mb 0.00 in0.0 mm 0.00 in0.0 mm 0.00 in0.0 mm
05:23 AM 30.5°F-0.8°C 11.7°F-11.3°C 45% 23.0 mph NNW37.0 kmh NNW 31.0 mph49.9 kmh 30.26 in1024.7 mb 0.00 in0.0 mm 0.00 in0.0 mm 0.00 in0.0 mm
05:22 AM 30.6°F-0.8°C 11.8°F-11.2°C 45% 19.0 mph NNW30.6 kmh NNW 26.0 mph41.8 kmh 30.25 in1024.4 mb 0.00 in0.0 mm 0.00 in0.0 mm 0.00 in0.0 mm
05:21 AM 30.7°F-0.7°C 11.9°F-11.2°C 45% 17.0 mph NNW27.4 kmh NNW 22.0 mph35.4 kmh 30.26 in1024.7 mb 0.00 in0.0 mm 0.00 in0.0 mm 0.00 in0.0 mm
05:20 AM 30.7°F-0.7°C 11.9°F-11.2°C 45% 20.0 mph NNW32.2 kmh NNW 29.0 mph46.7 kmh 30.26 in1024.7 mb 0.00 in0.0 mm 0.00 in0.0 mm 0.00 in0.0 mm
05:19 AM 30.8°F-0.7°C 12.0°F-11.1°C 45% 24.0 mph NNW38.6 kmh NNW 36.0 mph57.9 kmh 30.26 in1024.7 mb 0.00 in0.0 mm 0.00 in0.0 mm 0.00 in0.0 mm
05:18 AM 30.9°F-0.6°C 12.1°F-11.1°C 45% 16.0 mph NNW25.7 kmh NNW 23.0 mph37.0 kmh 30.26 in1024.7 mb 0.00 in0.0 mm 0.00 in0.0 mm 0.00 in0.0 mm
05:17 AM 31.0°F-0.6°C 11.7°F-11.3°C 44% 20.0 mph NNW32.2 kmh NNW 26.0 mph41.8 kmh 30.26 in1024.7 mb 0.00 in0.0 mm 0.00 in0.0 mm 0.00 in0.0 mm
05:16 AM 31.1°F-0.5°C 11.8°F-11.2°C 44% 22.0 mph NNW35.4 kmh NNW 27.0 mph43.5 kmh 30.26 in1024.7 mb 0.00 in0.0 mm 0.00 in0.0 mm 0.00 in0.0 mm
05:15 AM 31.2°F-0.4°C 12.4°F-10.9°C 45% 23.0 mph NNW37.0 kmh NNW 33.0 mph53.1 kmh 30.26 in1024.7 mb 0.00 in0.0 mm 0.00 in0.0 mm 0.00 in0.0 mm
05:14 AM 31.2°F-0.4°C 12.4°F-10.9°C 45% 23.0 mph NNW37.0 kmh NNW 32.0 mph51.5 kmh 30.25 in1024.4 mb 0.00 in0.0 mm 0.00 in0.0 mm 0.00 in0.0 mm
05:13 AM 31.2°F-0.4°C 12.9°F-10.6°C 46% 23.0 mph NNW37.0 kmh NNW 34.0 mph54.7 kmh 30.25 in1024.4 mb 0.00 in0.0 mm 0.00 in0.0 mm 0.00 in0.0 mm
05:12 AM 31.3°F-0.4°C 12.9°F-10.6°C 46% 23.0 mph NNW37.0 kmh NNW 32.0 mph51.5 kmh 30.25 in1024.4 mb 0.00 in0.0 mm 0.00 in0.0 mm 0.00 in0.0 mm
05:11 AM 31.4°F-0.3°C 13.0°F-10.6°C 46% 19.0 mph NNW30.6 kmh NNW 22.0 mph35.4 kmh 30.26 in1024.7 mb 0.00 in0.0 mm 0.00 in0.0 mm 0.00 in0.0 mm
05:10 AM 31.5°F-0.3°C 13.1°F-10.5°C 46% 19.0 mph NNW30.6 kmh NNW 27.0 mph43.5 kmh 30.25 in1024.4 mb 0.00 in0.0 mm 0.00 in0.0 mm 0.00 in0.0 mm
05:09 AM 31.5°F-0.3°C 13.1°F-10.5°C 46% 18.0 mph NNW29.0 kmh NNW 24.0 mph38.6 kmh 30.25 in1024.4 mb 0.00 in0.0 mm 0.00 in0.0 mm 0.00 in0.0 mm
05:08 AM 31.5°F-0.3°C 13.1°F-10.5°C 46% 19.0 mph NW30.6 kmh NW 29.0 mph46.7 kmh 30.25 in1024.4 mb 0.00 in0.0 mm 0.00 in0.0 mm 0.00 in0.0 mm
05:07 AM 31.5°F-0.3°C 13.1°F-10.5°C 46% 17.0 mph NNW27.4 kmh NNW 29.0 mph46.7 kmh 30.25 in1024.4 mb 0.00 in0.0 mm 0.00 in0.0 mm 0.00 in0.0 mm
05:06 AM 31.5°F-0.3°C 13.1°F-10.5°C 46% 17.0 mph NNW27.4 kmh NNW 24.0 mph38.6 kmh 30.25 in1024.4 mb 0.00 in0.0 mm 0.00 in0.0 mm 0.00 in0.0 mm
05:05 AM 31.6°F-0.2°C 13.2°F-10.4°C 46% 15.0 mph NNW24.1 kmh NNW 20.0 mph32.2 kmh 30.25 in1024.4 mb 0.00 in0.0 mm 0.00 in0.0 mm 0.00 in0.0 mm
05:04 AM 31.6°F-0.2°C 13.2°F-10.4°C 46% 16.0 mph NNW25.7 kmh NNW 26.0 mph41.8 kmh 30.25 in1024.4 mb 0.00 in0.0 mm 0.00 in0.0 mm 0.00 in0.0 mm
05:03 AM 31.7°F-0.2°C 13.3°F-10.4°C 46% 13.0 mph NW20.9 kmh NW 23.0 mph37.0 kmh 30.24 in1024.0 mb 0.00 in0.0 mm 0.00 in0.0 mm 0.00 in0.0 mm
05:02 AM 31.7°F-0.2°C 12.8°F-10.7°C 45% 16.0 mph 25.7 kmh 25.0 mph40.2 kmh 30.24 in1024.0 mb 0.00 in0.0 mm 0.00 in0.0 mm 0.00 in0.0 mm
05:01 AM 31.8°F-0.1°C 12.9°F-10.6°C 45% 14.0 mph NNW22.5 kmh NNW 22.0 mph35.4 kmh 30.24 in1024.0 mb 0.00 in0.0 mm 0.00 in0.0 mm 0.00 in0.0 mm
05:00 AM 31.9°F-0.1°C 13.0°F-10.6°C 45% 13.0 mph 20.9 kmh 19.0 mph30.6 kmh 30.24 in1024.0 mb 0.00 in0.0 mm 0.00 in0.0 mm 0.00 in0.0 mm
04:59 AM 31.9°F-0.1°C 13.0°F-10.6°C 45% 15.0 mph NNW24.1 kmh NNW 21.0 mph33.8 kmh 30.24 in1024.0 mb 0.00 in0.0 mm 0.00 in0.0 mm 0.00 in0.0 mm
04:58 AM 31.9°F-0.1°C 13.0°F-10.6°C 45% 20.0 mph NNW32.2 kmh NNW 27.0 mph43.5 kmh 30.24 in1024.0 mb 0.00 in0.0 mm 0.00 in0.0 mm 0.00 in0.0 mm
04:57 AM 31.9°F-0.1°C 13.0°F-10.6°C 45% 17.0 mph NNW27.4 kmh NNW 24.0 mph38.6 kmh 30.24 in1024.0 mb 0.00 in0.0 mm 0.00 in0.0 mm 0.00 in0.0 mm
04:56 AM 32.0°F0.0°C 13.1°F-10.5°C 45% 16.0 mph 25.7 kmh 22.0 mph35.4 kmh 30.25 in1024.4 mb 0.00 in0.0 mm 0.00 in0.0 mm 0.00 in0.0 mm
04:55 AM 32.0°F0.0°C 13.1°F-10.5°C 45% 21.0 mph 33.8 kmh 29.0 mph46.7 kmh 30.24 in1024.0 mb 0.00 in0.0 mm 0.00 in0.0 mm 0.00 in0.0 mm
04:54 AM 31.9°F-0.1°C 12.5°F-10.8°C 44% 20.0 mph NNW32.2 kmh NNW 28.0 mph45.1 kmh 30.25 in1024.4 mb 0.00 in0.0 mm 0.00 in0.0 mm 0.00 in0.0 mm
04:53 AM 31.9°F-0.1°C 13.0°F-10.6°C 45% 16.0 mph NNW25.7 kmh NNW 27.0 mph43.5 kmh 30.25 in1024.4 mb 0.00 in0.0 mm 0.00 in0.0 mm 0.00 in0.0 mm
04:52 AM 31.8°F-0.1°C 12.9°F-10.6°C 45% 10.0 mph 16.1 kmh 16.0 mph25.7 kmh 30.25 in1024.4 mb 0.00 in0.0 mm 0.00 in0.0 mm 0.00 in0.0 mm
04:51 AM 31.9°F-0.1°C 13.5°F-10.3°C 46% 12.0 mph 19.3 kmh 22.0 mph35.4 kmh 30.25 in1024.4 mb 0.00 in0.0 mm 0.00 in0.0 mm 0.00 in0.0 mm
04:50 AM 31.8°F-0.1°C 13.4°F-10.3°C 46% 10.0 mph NNW16.1 kmh NNW 17.0 mph27.4 kmh 30.24 in1024.0 mb 0.00 in0.0 mm 0.00 in0.0 mm 0.00 in0.0 mm
04:49 AM 31.9°F-0.1°C 13.5°F-10.3°C 46% 10.0 mph 16.1 kmh 14.0 mph22.5 kmh 30.25 in1024.4 mb 0.00 in0.0 mm 0.00 in0.0 mm 0.00 in0.0 mm
04:48 AM 31.9°F-0.1°C 13.5°F-10.3°C 46% 11.0 mph NNE17.7 kmh NNE 15.0 mph24.1 kmh 30.24 in1024.0 mb 0.00 in0.0 mm 0.00 in0.0 mm 0.00 in0.0 mm
04:47 AM 32.0°F0.0°C 13.6°F-10.2°C 46% 12.0 mph 19.3 kmh 20.0 mph32.2 kmh 30.25 in1024.4 mb 0.00 in0.0 mm 0.00 in0.0 mm 0.00 in0.0 mm
04:46 AM 32.1°F0.1°C 13.2°F-10.4°C 45% 14.0 mph 22.5 kmh 20.0 mph32.2 kmh 30.24 in1024.0 mb 0.00 in0.0 mm 0.00 in0.0 mm 0.00 in0.0 mm
04:45 AM 32.2°F0.1°C 13.3°F-10.4°C 45% 17.0 mph NNE27.4 kmh NNE 25.0 mph40.2 kmh 30.24 in1024.0 mb 0.00 in0.0 mm 0.00 in0.0 mm 0.00 in0.0 mm
04:44 AM 32.4°F0.2°C 13.5°F-10.3°C 45% 14.0 mph 22.5 kmh 20.0 mph32.2 kmh 30.24 in1024.0 mb 0.00 in0.0 mm 0.00 in0.0 mm 0.00 in0.0 mm
04:43 AM 32.6°F0.3°C 13.1°F-10.5°C 44% 15.0 mph 24.1 kmh 23.0 mph37.0 kmh 30.24 in1024.0 mb 0.00 in0.0 mm 0.00 in0.0 mm 0.00 in0.0 mm
04:42 AM 32.8°F0.4°C 12.8°F-10.7°C 43% 12.0 mph NNE19.3 kmh NNE 17.0 mph27.4 kmh 30.24 in1024.0 mb 0.00 in0.0 mm 0.00 in0.0 mm 0.00 in0.0 mm
04:41 AM 33.1°F0.6°C 12.5°F-10.8°C 42% 10.0 mph NNE16.1 kmh NNE 17.0 mph27.4 kmh 30.24 in1024.0 mb 0.00 in0.0 mm 0.00 in0.0 mm 0.00 in0.0 mm
04:40 AM 33.3°F0.7°C 11.0°F-11.7°C 39% 10.0 mph NNE16.1 kmh NNE 17.0 mph27.4 kmh 30.24 in1024.0 mb 0.00 in0.0 mm 0.00 in0.0 mm 0.00 in0.0 mm
04:39 AM 33.4°F0.8°C 10.6°F-11.9°C 38% 13.0 mph 20.9 kmh 31.0 mph49.9 kmh 30.24 in1024.0 mb 0.00 in0.0 mm 0.00 in0.0 mm 0.00 in0.0 mm
04:38 AM 33.5°F0.8°C 10.0°F-12.2°C 37% 17.0 mph NNW27.4 kmh NNW 28.0 mph45.1 kmh 30.24 in1024.0 mb 0.00 in0.0 mm 0.00 in0.0 mm 0.00 in0.0 mm
04:37 AM 33.5°F0.8°C 10.0°F-12.2°C 37% 19.0 mph NNW30.6 kmh NNW 29.0 mph46.7 kmh 30.23 in1023.7 mb 0.00 in0.0 mm 0.00 in0.0 mm 0.00 in0.0 mm
04:36 AM 33.6°F0.9°C 10.1°F-12.2°C 37% 18.0 mph 29.0 kmh 26.0 mph41.8 kmh 30.23 in1023.7 mb 0.00 in0.0 mm 0.00 in0.0 mm 0.00 in0.0 mm
04:35 AM 33.7°F0.9°C 10.2°F-12.1°C 37% 23.0 mph 37.0 kmh 40.0 mph64.4 kmh 30.23 in1023.7 mb 0.00 in0.0 mm 0.00 in0.0 mm 0.00 in0.0 mm
04:34 AM 33.8°F1.0°C 9.1°F-12.7°C 35% 22.0 mph NNW35.4 kmh NNW 34.0 mph54.7 kmh 30.23 in1023.7 mb 0.00 in0.0 mm 0.00 in0.0 mm 0.00 in0.0 mm
04:33 AM 33.7°F0.9°C 9.6°F-12.4°C 36% 21.0 mph 33.8 kmh 26.0 mph41.8 kmh 30.23 in1023.7 mb 0.00 in0.0 mm 0.00 in0.0 mm 0.00 in0.0 mm
04:32 AM 33.8°F1.0°C 9.7°F-12.4°C 36% 24.0 mph NNW38.6 kmh NNW 28.0 mph45.1 kmh 30.22 in1023.4 mb 0.00 in0.0 mm 0.00 in0.0 mm 0.00 in0.0 mm
04:31 AM 33.8°F1.0°C 9.7°F-12.4°C 36% 24.0 mph NNW38.6 kmh NNW 33.0 mph53.1 kmh 30.22 in1023.4 mb 0.00 in0.0 mm 0.00 in0.0 mm 0.00 in0.0 mm
04:30 AM 33.8°F1.0°C 9.1°F-12.7°C 35% 28.0 mph 45.1 kmh 37.0 mph59.5 kmh 30.23 in1023.7 mb 0.00 in0.0 mm 0.00 in0.0 mm 0.00 in0.0 mm
04:29 AM 33.7°F0.9°C 9.6°F-12.4°C 36% 24.0 mph NNW38.6 kmh NNW 35.0 mph56.3 kmh 30.22 in1023.4 mb 0.00 in0.0 mm 0.00 in0.0 mm 0.00 in0.0 mm
04:28 AM 33.6°F0.9°C 10.1°F-12.2°C 37% 23.0 mph 37.0 kmh 31.0 mph49.9 kmh 30.22 in1023.4 mb 0.00 in0.0 mm 0.00 in0.0 mm 0.00 in0.0 mm
04:27 AM 33.5°F0.8°C 10.0°F-12.2°C 37% 23.0 mph NNW37.0 kmh NNW 36.0 mph57.9 kmh 30.22 in1023.4 mb 0.00 in0.0 mm 0.00 in0.0 mm 0.00 in0.0 mm
04:26 AM 33.6°F0.9°C 10.1°F-12.2°C 37% 18.0 mph NNW29.0 kmh NNW 27.0 mph43.5 kmh 30.22 in1023.4 mb 0.00 in0.0 mm 0.00 in0.0 mm 0.00 in0.0 mm
04:25 AM 33.6°F0.9°C 10.1°F-12.2°C 37% 25.0 mph NNW40.2 kmh NNW 34.0 mph54.7 kmh 30.22 in1023.4 mb 0.00 in0.0 mm 0.00 in0.0 mm 0.00 in0.0 mm
04:24 AM 33.5°F0.8°C 10.0°F-12.2°C 37% 18.0 mph NNW29.0 kmh NNW 26.0 mph41.8 kmh 30.22 in1023.4 mb 0.00 in0.0 mm 0.00 in0.0 mm 0.00 in0.0 mm
04:23 AM 33.5°F0.8°C 10.0°F-12.2°C 37% 26.0 mph NNW41.8 kmh NNW 40.0 mph64.4 kmh 30.21 in1023.0 mb 0.00 in0.0 mm 0.00 in0.0 mm 0.00 in0.0 mm
04:22 AM 33.3°F0.7°C 9.9°F-12.3°C 37% 29.0 mph NNW46.7 kmh NNW 43.0 mph69.2 kmh 30.21 in1023.0 mb 0.00 in0.0 mm 0.00 in0.0 mm 0.00 in0.0 mm
04:21 AM 33.2°F0.7°C 9.8°F-12.3°C 37% 22.0 mph NNW35.4 kmh NNW 33.0 mph53.1 kmh 30.21 in1023.0 mb 0.00 in0.0 mm 0.00 in0.0 mm 0.00 in0.0 mm
04:20 AM 33.2°F0.7°C 9.8°F-12.3°C 37% 20.0 mph NNW32.2 kmh NNW 31.0 mph49.9 kmh 30.21 in1023.0 mb 0.00 in0.0 mm 0.00 in0.0 mm 0.00 in0.0 mm
04:19 AM 33.1°F0.6°C 10.3°F-12.1°C 38% 21.0 mph NNW33.8 kmh NNW 31.0 mph49.9 kmh 30.21 in1023.0 mb 0.00 in0.0 mm 0.00 in0.0 mm 0.00 in0.0 mm
04:18 AM 33.0°F0.6°C 10.2°F-12.1°C 38% 29.0 mph NNW46.7 kmh NNW 41.0 mph66.0 kmh 30.22 in1023.4 mb 0.00 in0.0 mm 0.00 in0.0 mm 0.00 in0.0 mm
04:17 AM 32.8°F0.4°C 11.2°F-11.6°C 40% 17.0 mph NNW27.4 kmh NNW 23.0 mph37.0 kmh 30.21 in1023.0 mb 0.00 in0.0 mm 0.00 in0.0 mm 0.00 in0.0 mm
04:16 AM 32.9°F0.5°C 11.3°F-11.5°C 40% 18.0 mph NNW29.0 kmh NNW 29.0 mph46.7 kmh 30.21 in1023.0 mb 0.00 in0.0 mm 0.00 in0.0 mm 0.00 in0.0 mm
04:15 AM 32.8°F0.4°C 11.2°F-11.6°C 40% 25.0 mph 40.2 kmh 34.0 mph54.7 kmh 30.21 in1023.0 mb 0.00 in0.0 mm 0.00 in0.0 mm 0.00 in0.0 mm
04:14 AM 32.8°F0.4°C 11.7°F-11.3°C 41% 21.0 mph NNW33.8 kmh NNW 30.0 mph48.3 kmh 30.21 in1023.0 mb 0.00 in0.0 mm 0.00 in0.0 mm 0.00 in0.0 mm
04:13 AM 32.7°F0.4°C 11.6°F-11.3°C 41% 19.0 mph NNW30.6 kmh NNW 34.0 mph54.7 kmh 30.21 in1023.0 mb 0.00 in0.0 mm 0.00 in0.0 mm 0.00 in0.0 mm
04:12 AM 32.8°F0.4°C 11.7°F-11.3°C 41% 21.0 mph NNW33.8 kmh NNW 31.0 mph49.9 kmh 30.21 in1023.0 mb 0.00 in0.0 mm 0.00 in0.0 mm 0.00 in0.0 mm
04:11 AM 32.7°F0.4°C 12.2°F-11.0°C 42% 25.0 mph NNW40.2 kmh NNW 34.0 mph54.7 kmh 30.21 in1023.0 mb 0.00 in0.0 mm 0.00 in0.0 mm 0.00 in0.0 mm
04:10 AM 32.7°F0.4°C 12.2°F-11.0°C 42% 22.0 mph NNW35.4 kmh NNW 30.0 mph48.3 kmh 30.21 in1023.0 mb 0.00 in0.0 mm 0.00 in0.0 mm 0.00 in0.0 mm
04:09 AM 32.7°F0.4°C 12.2°F-11.0°C 42% 21.0 mph NNW33.8 kmh NNW 30.0 mph48.3 kmh 30.21 in1023.0 mb 0.00 in0.0 mm 0.00 in0.0 mm 0.00 in0.0 mm
04:08 AM 32.7°F0.4°C 12.2°F-11.0°C 42% 24.0 mph NNW38.6 kmh NNW 32.0 mph51.5 kmh 30.21 in1023.0 mb 0.00 in0.0 mm 0.00 in0.0 mm 0.00 in0.0 mm
04:07 AM 32.7°F0.4°C 12.2°F-11.0°C 42% 20.0 mph NNW32.2 kmh NNW 27.0 mph43.5 kmh 30.21 in1023.0 mb 0.00 in0.0 mm 0.00 in0.0 mm 0.00 in0.0 mm
04:06 AM 32.7°F0.4°C 12.2°F-11.0°C 42% 21.0 mph NNW33.8 kmh NNW 30.0 mph48.3 kmh 30.21 in1023.0 mb 0.00 in0.0 mm 0.00 in0.0 mm 0.00 in0.0 mm
04:05 AM 32.8°F0.4°C 12.3°F-10.9°C 42% 23.0 mph NNW37.0 kmh NNW 30.0 mph48.3 kmh 30.21 in1023.0 mb 0.00 in0.0 mm 0.00 in0.0 mm 0.00 in0.0 mm
04:04 AM 32.8°F0.4°C 11.7°F-11.3°C 41% 21.0 mph NNW33.8 kmh NNW 28.0 mph45.1 kmh 30.21 in1023.0 mb 0.00 in0.0 mm 0.00 in0.0 mm 0.00 in0.0 mm
04:03 AM 32.8°F0.4°C 11.7°F-11.3°C 41% 22.0 mph NNW35.4 kmh NNW 30.0 mph48.3 kmh 30.21 in1023.0 mb 0.00 in0.0 mm 0.00 in0.0 mm 0.00 in0.0 mm
04:02 AM 32.8°F0.4°C 11.7°F-11.3°C 41% 21.0 mph NNW33.8 kmh NNW 29.0 mph46.7 kmh 30.21 in1023.0 mb 0.00 in0.0 mm 0.00 in0.0 mm 0.00 in0.0 mm
04:01 AM 32.9°F0.5°C 11.8°F-11.2°C 41% 23.0 mph NNW37.0 kmh NNW 27.0 mph43.5 kmh 30.21 in1023.0 mb 0.00 in0.0 mm 0.00 in0.0 mm 0.00 in0.0 mm
04:00 AM 33.0°F0.6°C 11.3°F-11.5°C 40% 20.0 mph NNW32.2 kmh NNW 32.0 mph51.5 kmh 30.20 in1022.7 mb 0.00 in0.0 mm 0.00 in0.0 mm 0.00 in0.0 mm
03:59 AM 33.0°F0.6°C 11.3°F-11.5°C 40% 26.0 mph NNW41.8 kmh NNW 38.0 mph61.2 kmh 30.20 in1022.7 mb 0.00 in0.0 mm 0.00 in0.0 mm 0.00 in0.0 mm
03:58 AM 33.0°F0.6°C 10.8°F-11.8°C 39% 23.0 mph 37.0 kmh 33.0 mph53.1 kmh 30.20 in1022.7 mb 0.00 in0.0 mm 0.00 in0.0 mm 0.00 in0.0 mm
03:57 AM 33.1°F0.6°C 10.9°F-11.7°C 39% 28.0 mph NNW45.1 kmh NNW 37.0 mph59.5 kmh 30.20 in1022.7 mb 0.00 in0.0 mm 0.00 in0.0 mm 0.00 in0.0 mm
03:56 AM 33.0°F0.6°C 10.2°F-12.1°C 38% 28.0 mph NNW45.1 kmh NNW 34.0 mph54.7 kmh 30.20 in1022.7 mb 0.00 in0.0 mm 0.00 in0.0 mm 0.00 in0.0 mm
03:55 AM 33.0°F0.6°C 10.8°F-11.8°C 39% 24.0 mph NNW38.6 kmh NNW 33.0 mph53.1 kmh 30.20 in1022.7 mb 0.00 in0.0 mm 0.00 in0.0 mm 0.00 in0.0 mm
03:54 AM 33.0°F0.6°C 10.2°F-12.1°C 38% 27.0 mph 43.5 kmh 41.0 mph66.0 kmh 30.19 in1022.4 mb 0.00 in0.0 mm 0.00 in0.0 mm 0.00 in0.0 mm
03:53 AM 32.9°F0.5°C 11.3°F-11.5°C 40% 29.0 mph NNW46.7 kmh NNW 43.0 mph69.2 kmh 30.19 in1022.4 mb 0.00 in0.0 mm 0.00 in0.0 mm 0.00 in0.0 mm
03:52 AM 32.9°F0.5°C 11.8°F-11.2°C 41% 30.0 mph NNW48.3 kmh NNW 51.0 mph82.1 kmh 30.19 in1022.4 mb 0.00 in0.0 mm 0.00 in0.0 mm 0.00 in0.0 mm
03:51 AM 32.9°F0.5°C 11.3°F-11.5°C 40% 24.0 mph NNW38.6 kmh NNW 37.0 mph59.5 kmh 30.19 in1022.4 mb 0.00 in0.0 mm 0.00 in0.0 mm 0.00 in0.0 mm
03:50 AM 32.9°F0.5°C 10.7°F-11.8°C 39% 26.0 mph NNW41.8 kmh NNW 40.0 mph64.4 kmh 30.19 in1022.4 mb 0.00 in0.0 mm 0.00 in0.0 mm 0.00 in0.0 mm
03:49 AM 32.9°F0.5°C 11.3°F-11.5°C 40% 24.0 mph NNW38.6 kmh NNW 41.0 mph66.0 kmh 30.18 in1022.0 mb 0.00 in0.0 mm 0.00 in0.0 mm 0.00 in0.0 mm
03:48 AM 33.0°F0.6°C 10.8°F-11.8°C 39% 26.0 mph NNW41.8 kmh NNW 42.0 mph67.6 kmh 30.18 in1022.0 mb 0.00 in0.0 mm 0.00 in0.0 mm 0.00 in0.0 mm
03:47 AM 32.9°F0.5°C 11.3°F-11.5°C 40% 27.0 mph NNW43.5 kmh NNW 39.0 mph62.8 kmh 30.19 in1022.4 mb 0.00 in0.0 mm 0.00 in0.0 mm 0.00 in0.0 mm
03:46 AM 32.8°F0.4°C 11.2°F-11.6°C 40% 25.0 mph NW40.2 kmh NW 37.0 mph59.5 kmh 30.18 in1022.0 mb 0.00 in0.0 mm 0.00 in0.0 mm 0.00 in0.0 mm
03:45 AM 32.7°F0.4°C 11.6°F-11.3°C 41% 26.0 mph NNW41.8 kmh NNW 34.0 mph54.7 kmh 30.18 in1022.0 mb 0.00 in0.0 mm 0.00 in0.0 mm 0.00 in0.0 mm
03:44 AM 32.7°F0.4°C 11.6°F-11.3°C 41% 26.0 mph NNW41.8 kmh NNW 37.0 mph59.5 kmh 30.19 in1022.4 mb 0.00 in0.0 mm 0.00 in0.0 mm 0.00 in0.0 mm
03:43 AM 32.7°F0.4°C 11.6°F-11.3°C 41% 28.0 mph NNW45.1 kmh NNW 37.0 mph59.5 kmh 30.18 in1022.0 mb 0.00 in0.0 mm 0.00 in0.0 mm 0.00 in0.0 mm
03:42 AM 32.6°F0.3°C 12.1°F-11.1°C 42% 24.0 mph NNW38.6 kmh NNW 35.0 mph56.3 kmh 30.19 in1022.4 mb 0.00 in0.0 mm 0.00 in0.0 mm 0.00 in0.0 mm
03:41 AM 32.6°F0.3°C 12.1°F-11.1°C 42% 25.0 mph NNW40.2 kmh NNW 32.0 mph51.5 kmh 30.18 in1022.0 mb 0.00 in0.0 mm 0.00 in0.0 mm 0.00 in0.0 mm
03:40 AM 32.5°F0.3°C 12.5°F-10.8°C 43% 27.0 mph NNW43.5 kmh NNW 36.0 mph57.9 kmh 30.19 in1022.4 mb 0.00 in0.0 mm 0.00 in0.0 mm 0.00 in0.0 mm
03:39 AM 32.4°F0.2°C 12.9°F-10.6°C 44% 19.0 mph NNW30.6 kmh NNW 28.0 mph45.1 kmh 30.19 in1022.4 mb 0.00 in0.0 mm 0.00 in0.0 mm 0.00 in0.0 mm
03:38 AM 32.5°F0.3°C 13.0°F-10.6°C 44% 21.0 mph NNW33.8 kmh NNW 31.0 mph49.9 kmh 30.18 in1022.0 mb 0.00 in0.0 mm 0.00 in0.0 mm 0.00 in0.0 mm
03:37 AM 32.5°F0.3°C 13.0°F-10.6°C 44% 23.0 mph NW37.0 kmh NW 34.0 mph54.7 kmh 30.18 in1022.0 mb 0.00 in0.0 mm 0.00 in0.0 mm 0.00 in0.0 mm
03:36 AM 32.5°F0.3°C 13.0°F-10.6°C 44% 24.0 mph NNW38.6 kmh NNW 39.0 mph62.8 kmh 30.18 in1022.0 mb 0.00 in0.0 mm 0.00 in0.0 mm 0.00 in0.0 mm
03:35 AM 32.5°F0.3°C 13.5°F-10.3°C 45% 25.0 mph NNW40.2 kmh NNW 40.0 mph64.4 kmh 30.19 in1022.4 mb 0.00 in0.0 mm 0.00 in0.0 mm 0.00 in0.0 mm
03:34 AM 32.5°F0.3°C 13.0°F-10.6°C 44% 23.0 mph NNW37.0 kmh NNW 33.0 mph53.1 kmh 30.19 in1022.4 mb 0.00 in0.0 mm 0.00 in0.0 mm 0.00 in0.0 mm
03:33 AM 32.5°F0.3°C 13.0°F-10.6°C 44% 23.0 mph NNW37.0 kmh NNW 33.0 mph53.1 kmh 30.19 in1022.4 mb 0.00 in0.0 mm 0.00 in0.0 mm 0.00 in0.0 mm
03:32 AM 32.4°F0.2°C 13.5°F-10.3°C 45% 25.0 mph NNW40.2 kmh NNW 38.0 mph61.2 kmh 30.19 in1022.4 mb 0.00 in0.0 mm 0.00 in0.0 mm 0.00 in0.0 mm
03:31 AM 32.4°F0.2°C 13.5°F-10.3°C 45% 24.0 mph NNW38.6 kmh NNW 35.0 mph56.3 kmh 30.18 in1022.0 mb 0.00 in0.0 mm 0.00 in0.0 mm 0.00 in0.0 mm
03:30 AM 32.4°F0.2°C 13.5°F-10.3°C 45% 23.0 mph NNW37.0 kmh NNW 36.0 mph57.9 kmh 30.18 in1022.0 mb 0.00 in0.0 mm 0.00 in0.0 mm 0.00 in0.0 mm
03:29 AM 32.5°F0.3°C 13.0°F-10.6°C 44% 25.0 mph NNW40.2 kmh NNW 38.0 mph61.2 kmh 30.18 in1022.0 mb 0.00 in0.0 mm 0.00 in0.0 mm 0.00 in0.0 mm
03:28 AM 32.5°F0.3°C 14.0°F-10.0°C 46% 25.0 mph NNW40.2 kmh NNW 31.0 mph49.9 kmh 30.18 in1022.0 mb 0.00 in0.0 mm 0.00 in0.0 mm 0.00 in0.0 mm
03:27 AM 32.5°F0.3°C 14.0°F-10.0°C 46% 26.0 mph NNW41.8 kmh NNW 35.0 mph56.3 kmh 30.19 in1022.4 mb 0.00 in0.0 mm 0.00 in0.0 mm 0.00 in0.0 mm
03:26 AM 32.5°F0.3°C 13.5°F-10.3°C 45% 29.0 mph NNW46.7 kmh NNW 42.0 mph67.6 kmh 30.18 in1022.0 mb 0.00 in0.0 mm 0.00 in0.0 mm 0.00 in0.0 mm
03:25 AM 32.6°F0.3°C 13.6°F-10.2°C 45% 30.0 mph NNW48.3 kmh NNW 46.0 mph74.0 kmh 30.18 in1022.0 mb 0.00 in0.0 mm 0.00 in0.0 mm 0.00 in0.0 mm
03:24 AM 32.6°F0.3°C 14.1°F-9.9°C 46% 28.0 mph NW45.1 kmh NW 39.0 mph62.8 kmh 30.18 in1022.0 mb 0.00 in0.0 mm 0.00 in0.0 mm 0.00 in0.0 mm
03:23 AM 32.6°F0.3°C 14.1°F-9.9°C 46% 28.0 mph NNW45.1 kmh NNW 44.0 mph70.8 kmh 30.18 in1022.0 mb 0.00 in0.0 mm 0.00 in0.0 mm 0.00 in0.0 mm
03:22 AM 32.6°F0.3°C 14.1°F-9.9°C 46% 31.0 mph NNW49.9 kmh NNW 39.0 mph62.8 kmh 30.18 in1022.0 mb 0.00 in0.0 mm 0.00 in0.0 mm 0.00 in0.0 mm
03:21 AM 32.6°F0.3°C 14.1°F-9.9°C 46% 26.0 mph NNW41.8 kmh NNW 36.0 mph57.9 kmh 30.17 in1021.7 mb 0.00 in0.0 mm 0.00 in0.0 mm 0.00 in0.0 mm
03:20 AM 32.6°F0.3°C 14.1°F-9.9°C 46% 29.0 mph NNW46.7 kmh NNW 38.0 mph61.2 kmh 30.17 in1021.7 mb 0.00 in0.0 mm 0.00 in0.0 mm 0.00 in0.0 mm
03:19 AM 32.6°F0.3°C 14.1°F-9.9°C 46% 34.0 mph NNW54.7 kmh NNW 47.0 mph75.6 kmh 30.18 in1022.0 mb 0.00 in0.0 mm 0.00 in0.0 mm 0.00 in0.0 mm
03:18 AM 32.6°F0.3°C 14.1°F-9.9°C 46% 31.0 mph NNW49.9 kmh NNW 55.0 mph88.5 kmh 30.18 in1022.0 mb 0.00 in0.0 mm 0.00 in0.0 mm 0.00 in0.0 mm
03:17 AM 32.7°F0.4°C 14.7°F-9.6°C 47% 24.0 mph NNW38.6 kmh NNW 35.0 mph56.3 kmh 30.18 in1022.0 mb 0.00 in0.0 mm 0.00 in0.0 mm 0.00 in0.0 mm
03:16 AM 32.6°F0.3°C 14.6°F-9.7°C 47% 37.0 mph NNW59.5 kmh NNW 55.0 mph88.5 kmh 30.17 in1021.7 mb 0.00 in0.0 mm 0.00 in0.0 mm 0.00 in0.0 mm
03:15 AM 32.6°F0.3°C 15.1°F-9.4°C 48% 27.0 mph NNW43.5 kmh NNW 43.0 mph69.2 kmh 30.18 in1022.0 mb 0.00 in0.0 mm 0.00 in0.0 mm 0.00 in0.0 mm
03:14 AM 32.5°F0.3°C 15.5°F-9.2°C 49% 29.0 mph NNW46.7 kmh NNW 50.0 mph80.5 kmh 30.18 in1022.0 mb 0.00 in0.0 mm 0.00 in0.0 mm 0.00 in0.0 mm
03:13 AM 32.4°F0.2°C 15.9°F-8.9°C 50% 27.0 mph NNW43.5 kmh NNW 41.0 mph66.0 kmh 30.17 in1021.7 mb 0.00 in0.0 mm 0.00 in0.0 mm 0.00 in0.0 mm
03:12 AM 32.3°F0.2°C 16.7°F-8.5°C 52% 30.0 mph NNW48.3 kmh NNW 46.0 mph74.0 kmh 30.18 in1022.0 mb 0.00 in0.0 mm 0.00 in0.0 mm 0.00 in0.0 mm
03:11 AM 32.2°F0.1°C 17.4°F-8.1°C 54% 26.0 mph NNW41.8 kmh NNW 35.0 mph56.3 kmh 30.17 in1021.7 mb 0.00 in0.0 mm 0.00 in0.0 mm 0.00 in0.0 mm
03:10 AM 32.2°F0.1°C 17.9°F-7.8°C 55% 26.0 mph NW41.8 kmh NW 33.0 mph53.1 kmh 30.17 in1021.7 mb 0.00 in0.0 mm 0.00 in0.0 mm 0.00 in0.0 mm
03:09 AM 32.2°F0.1°C 18.3°F-7.6°C 56% 26.0 mph NNW41.8 kmh NNW 42.0 mph67.6 kmh 30.17 in1021.7 mb 0.00 in0.0 mm 0.00 in0.0 mm 0.00 in0.0 mm
03:08 AM 32.2°F0.1°C 18.7°F-7.4°C 57% 33.0 mph NNW53.1 kmh NNW 50.0 mph80.5 kmh 30.18 in1022.0 mb 0.00 in0.0 mm 0.00 in0.0 mm 0.00 in0.0 mm
03:07 AM 32.3°F0.2°C 19.6°F-6.9°C 59% 27.0 mph NNW43.5 kmh NNW 52.0 mph83.7 kmh 30.18 in1022.0 mb 0.00 in0.0 mm 0.00 in0.0 mm 0.00 in0.0 mm
03:06 AM 32.2°F0.1°C 19.9°F-6.7°C 60% 35.0 mph NW56.3 kmh NW 52.0 mph83.7 kmh 30.18 in1022.0 mb 0.00 in0.0 mm 0.00 in0.0 mm 0.00 in0.0 mm
03:05 AM 32.2°F0.1°C 20.3°F-6.5°C 61% 31.0 mph NNW49.9 kmh NNW 43.0 mph69.2 kmh 30.18 in1022.0 mb 0.00 in0.0 mm 0.00 in0.0 mm 0.00 in0.0 mm
03:04 AM 32.1°F0.1°C 20.6°F-6.3°C 62% 26.0 mph 41.8 kmh 42.0 mph67.6 kmh 30.17 in1021.7 mb 0.00 in0.0 mm 0.00 in0.0 mm 0.00 in0.0 mm
03:03 AM 31.9°F-0.1°C 21.1°F-6.1°C 64% 32.0 mph NNW51.5 kmh NNW 42.0 mph67.6 kmh 30.18 in1022.0 mb 0.00 in0.0 mm 0.00 in0.0 mm 0.00 in0.0 mm
03:02 AM 31.6°F-0.2°C 22.3°F-5.4°C 68% 24.0 mph NNW38.6 kmh NNW 34.0 mph54.7 kmh 30.18 in1022.0 mb 0.00 in0.0 mm 0.00 in0.0 mm 0.00 in0.0 mm
03:01 AM 31.5°F-0.3°C 22.9°F-5.1°C 70% 24.0 mph NNW38.6 kmh NNW 49.0 mph78.9 kmh 30.17 in1021.7 mb 0.00 in0.0 mm 0.00 in0.0 mm 0.00 in0.0 mm
03:00 AM 31.3°F-0.4°C 23.7°F-4.6°C 73% 28.0 mph NNW45.1 kmh NNW 49.0 mph78.9 kmh 30.17 in1021.7 mb 0.00 in0.0 mm 0.00 in0.0 mm 0.00 in0.0 mm
02:59 AM 31.1°F-0.5°C 24.1°F-4.4°C 75% 29.0 mph NNW46.7 kmh NNW 39.0 mph62.8 kmh 30.18 in1022.0 mb 0.00 in0.0 mm 0.00 in0.0 mm 0.00 in0.0 mm
02:58 AM 30.9°F-0.6°C 24.9°F-3.9°C 78% 23.0 mph NNW37.0 kmh NNW 34.0 mph54.7 kmh 30.17 in1021.7 mb 0.00 in0.0 mm 0.00 in0.0 mm 0.00 in0.0 mm
02:57 AM 30.8°F-0.7°C 24.8°F-4.0°C 78% 27.0 mph NNW43.5 kmh NNW 36.0 mph57.9 kmh 30.16 in1021.3 mb 0.00 in0.0 mm 0.00 in0.0 mm 0.00 in0.0 mm
02:56 AM 30.9°F-0.6°C 25.5°F-3.6°C 80% 28.0 mph 45.1 kmh 36.0 mph57.9 kmh 30.16 in1021.3 mb 0.00 in0.0 mm 0.00 in0.0 mm 0.00 in0.0 mm
02:55 AM 30.9°F-0.6°C 25.5°F-3.6°C 80% 30.0 mph NNW48.3 kmh NNW 39.0 mph62.8 kmh 30.17 in1021.7 mb 0.00 in0.0 mm 0.00 in0.0 mm 0.00 in0.0 mm
02:54 AM 31.0°F-0.6°C 25.0°F-3.9°C 78% 25.0 mph 40.2 kmh 31.0 mph49.9 kmh 30.17 in1021.7 mb 0.00 in0.0 mm 0.00 in0.0 mm 0.00 in0.0 mm
02:53 AM 31.1°F-0.5°C 25.1°F-3.8°C 78% 31.0 mph NNW49.9 kmh NNW 40.0 mph64.4 kmh 30.17 in1021.7 mb 0.00 in0.0 mm 0.00 in0.0 mm 0.00 in0.0 mm
02:52 AM 31.2°F-0.4°C 24.8°F-4.0°C 77% 28.0 mph NW45.1 kmh NW 47.0 mph75.6 kmh 30.16 in1021.3 mb 0.00 in0.0 mm 0.00 in0.0 mm 0.00 in0.0 mm
02:51 AM 31.4°F-0.3°C 24.7°F-4.1°C 76% 31.0 mph NNW49.9 kmh NNW 44.0 mph70.8 kmh 30.17 in1021.7 mb 0.00 in0.0 mm 0.00 in0.0 mm 0.00 in0.0 mm
02:50 AM 31.5°F-0.3°C 24.5°F-4.2°C 75% 33.0 mph NNW53.1 kmh NNW 46.0 mph74.0 kmh 30.16 in1021.3 mb 0.00 in0.0 mm 0.00 in0.0 mm 0.00 in0.0 mm
02:49 AM 31.6°F-0.2°C 24.6°F-4.1°C 75% 25.0 mph 40.2 kmh 33.0 mph53.1 kmh 30.17 in1021.7 mb 0.00 in0.0 mm 0.00 in0.0 mm 0.00 in0.0 mm
02:48 AM 31.7°F-0.2°C 24.7°F-4.1°C 75% 32.0 mph NNW51.5 kmh NNW 44.0 mph70.8 kmh 30.16 in1021.3 mb 0.00 in0.0 mm 0.00 in0.0 mm 0.00 in0.0 mm
02:47 AM 31.9°F-0.1°C 24.9°F-3.9°C 75% 33.0 mph NNW53.1 kmh NNW 41.0 mph66.0 kmh 30.16 in1021.3 mb 0.00 in0.0 mm 0.00 in0.0 mm 0.00 in0.0 mm
02:46 AM 31.9°F-0.1°C 24.9°F-3.9°C 75% 28.0 mph NNW45.1 kmh NNW 43.0 mph69.2 kmh 30.16 in1021.3 mb 0.00 in0.0 mm 0.00 in0.0 mm 0.00 in0.0 mm
02:45 AM 32.1°F0.1°C 25.4°F-3.7°C 76% 33.0 mph NNW53.1 kmh NNW 45.0 mph72.4 kmh 30.16 in1021.3 mb 0.00 in0.0 mm 0.00 in0.0 mm 0.00 in0.0 mm
02:44 AM 32.3°F0.2°C 25.6°F-3.6°C 76% 25.0 mph NNW40.2 kmh NNW 34.0 mph54.7 kmh 30.16 in1021.3 mb 0.00 in0.0 mm 0.00 in0.0 mm 0.00 in0.0 mm
02:43 AM 32.4°F0.2°C 25.4°F-3.7°C 75% 28.0 mph NNW45.1 kmh NNW 39.0 mph62.8 kmh 30.16 in1021.3 mb 0.00 in0.0 mm 0.00 in0.0 mm 0.00 in0.0 mm
02:42 AM 32.6°F0.3°C 25.2°F-3.8°C 74% 28.0 mph NNW45.1 kmh NNW 39.0 mph62.8 kmh 30.16 in1021.3 mb 0.00 in0.0 mm 0.00 in0.0 mm 0.00 in0.0 mm
02:41 AM 32.7°F0.4°C 25.3°F-3.7°C 74% 25.0 mph NNW40.2 kmh NNW 39.0 mph62.8 kmh 30.16 in1021.3 mb 0.00 in0.0 mm 0.00 in0.0 mm 0.00 in0.0 mm
02:40 AM 32.8°F0.4°C 25.1°F-3.8°C 73% 25.0 mph NNW40.2 kmh NNW 37.0 mph59.5 kmh 30.16 in1021.3 mb 0.00 in0.0 mm 0.00 in0.0 mm 0.00 in0.0 mm
02:39 AM 32.8°F0.4°C 25.1°F-3.8°C 73% 26.0 mph 41.8 kmh 38.0 mph61.2 kmh 30.16 in1021.3 mb 0.00 in0.0 mm 0.00 in0.0 mm 0.00 in0.0 mm
02:38 AM 32.9°F0.5°C 25.2°F-3.8°C 73% 23.0 mph NW37.0 kmh NW 47.0 mph75.6 kmh 30.16 in1021.3 mb 0.00 in0.0 mm 0.00 in0.0 mm 0.00 in0.0 mm
02:37 AM 32.9°F0.5°C 25.5°F-3.6°C 74% 29.0 mph NNW46.7 kmh NNW 47.0 mph75.6 kmh 30.16 in1021.3 mb 0.00 in0.0 mm 0.00 in0.0 mm 0.00 in0.0 mm
02:36 AM 32.9°F0.5°C 25.9°F-3.4°C 75% 27.0 mph NNW43.5 kmh NNW 42.0 mph67.6 kmh 30.16 in1021.3 mb 0.00 in0.0 mm 0.00 in0.0 mm 0.00 in0.0 mm
02:35 AM 32.9°F0.5°C 26.2°F-3.2°C 76% 22.0 mph 35.4 kmh 32.0 mph51.5 kmh 30.16 in1021.3 mb 0.00 in0.0 mm 0.00 in0.0 mm 0.00 in0.0 mm
02:34 AM 33.0°F0.6°C 26.3°F-3.2°C 76% 24.0 mph 38.6 kmh 40.0 mph64.4 kmh 30.16 in1021.3 mb 0.00 in0.0 mm 0.00 in0.0 mm 0.00 in0.0 mm
02:33 AM 33.1°F0.6°C 26.4°F-3.1°C 76% 21.0 mph NW33.8 kmh NW 31.0 mph49.9 kmh 30.16 in1021.3 mb 0.00 in0.0 mm 0.00 in0.0 mm 0.00 in0.0 mm
02:32 AM 33.2°F0.7°C 26.5°F-3.1°C 76% 22.0 mph NW35.4 kmh NW 36.0 mph57.9 kmh 30.16 in1021.3 mb 0.00 in0.0 mm 0.00 in0.0 mm 0.00 in0.0 mm
02:31 AM 33.4°F0.8°C 26.3°F-3.2°C 75% 18.0 mph NNW29.0 kmh NNW 42.0 mph67.6 kmh 30.15 in1021.0 mb 0.00 in0.0 mm 0.00 in0.0 mm 0.00 in0.0 mm
02:30 AM 33.6°F0.9°C 26.5°F-3.1°C 75% 18.0 mph NNW29.0 kmh NNW 23.0 mph37.0 kmh 30.15 in1021.0 mb 0.00 in0.0 mm 0.00 in0.0 mm 0.00 in0.0 mm
02:29 AM 33.8°F1.0°C 26.4°F-3.1°C 74% 25.0 mph NW40.2 kmh NW 42.0 mph67.6 kmh 30.15 in1021.0 mb 0.00 in0.0 mm 0.00 in0.0 mm 0.00 in0.0 mm
02:28 AM 34.0°F1.1°C 26.3°F-3.2°C 73% 18.0 mph NNW29.0 kmh NNW 28.0 mph45.1 kmh 30.15 in1021.0 mb 0.00 in0.0 mm 0.00 in0.0 mm 0.00 in0.0 mm
02:27 AM 34.3°F1.3°C 26.6°F-3.0°C 73% 15.0 mph NNW24.1 kmh NNW 27.0 mph43.5 kmh 30.15 in1021.0 mb 0.00 in0.0 mm 0.00 in0.0 mm 0.00 in0.0 mm
02:26 AM 34.6°F1.4°C 26.5°F-3.1°C 72% 20.0 mph NNW32.2 kmh NNW 30.0 mph48.3 kmh 30.16 in1021.3 mb 0.00 in0.0 mm 0.00 in0.0 mm 0.00 in0.0 mm
02:25 AM 35.0°F1.7°C 26.2°F-3.2°C 70% 14.0 mph 22.5 kmh 30.0 mph48.3 kmh 30.15 in1021.0 mb 0.00 in0.0 mm 0.00 in0.0 mm 0.00 in0.0 mm
02:24 AM 35.5°F1.9°C 26.4°F-3.1°C 69% 16.0 mph NNW25.7 kmh NNW 26.0 mph41.8 kmh 30.16 in1021.3 mb 0.00 in0.0 mm 0.00 in0.0 mm 0.00 in0.0 mm
02:23 AM 35.9°F2.2°C 26.0°F-3.3°C 67% 12.0 mph 19.3 kmh 17.0 mph27.4 kmh 30.15 in1021.0 mb 0.00 in0.0 mm 0.00 in0.0 mm 0.00 in0.0 mm
02:22 AM 36.2°F2.3°C 26.0°F-3.3°C 66% 11.0 mph NNW17.7 kmh NNW 17.0 mph27.4 kmh 30.14 in1020.7 mb 0.00 in0.0 mm 0.00 in0.0 mm 0.00 in0.0 mm
02:21 AM 36.6°F2.6°C 26.0°F-3.3°C 65% 14.0 mph NNW22.5 kmh NNW 23.0 mph37.0 kmh 30.15 in1021.0 mb 0.00 in0.0 mm 0.00 in0.0 mm 0.00 in0.0 mm
02:20 AM 36.9°F2.7°C 25.9°F-3.4°C 64% 25.0 mph 40.2 kmh 37.0 mph59.5 kmh 30.14 in1020.7 mb 0.00 in0.0 mm 0.00 in0.0 mm 0.00 in0.0 mm
02:19 AM 37.2°F2.9°C 23.8°F-4.6°C 58% 21.0 mph NW33.8 kmh NW 30.0 mph48.3 kmh 30.14 in1020.7 mb 0.00 in0.0 mm 0.00 in0.0 mm 0.00 in0.0 mm
02:18 AM 37.2°F2.9°C 23.8°F-4.6°C 58% 24.0 mph NW38.6 kmh NW 31.0 mph49.9 kmh 30.14 in1020.7 mb 0.00 in0.0 mm 0.00 in0.0 mm 0.00 in0.0 mm
02:17 AM 37.2°F2.9°C 23.8°F-4.6°C 58% 30.0 mph NNW48.3 kmh NNW 38.0 mph61.2 kmh 30.13 in1020.3 mb 0.00 in0.0 mm 0.00 in0.0 mm 0.00 in0.0 mm
02:16 AM 37.1°F2.8°C 24.1°F-4.4°C 59% 22.0 mph NNW35.4 kmh NNW 29.0 mph46.7 kmh 30.14 in1020.7 mb 0.00 in0.0 mm 0.00 in0.0 mm 0.00 in0.0 mm
02:15 AM 37.1°F2.8°C 24.1°F-4.4°C 59% 25.0 mph NNW40.2 kmh NNW 34.0 mph54.7 kmh 30.14 in1020.7 mb 0.00 in0.0 mm 0.00 in0.0 mm 0.00 in0.0 mm
02:14 AM 37.0°F2.8°C 24.0°F-4.4°C 59% 24.0 mph NNW38.6 kmh NNW 30.0 mph48.3 kmh 30.14 in1020.7 mb 0.00 in0.0 mm 0.00 in0.0 mm 0.00 in0.0 mm
02:13 AM 37.0°F2.8°C 24.4°F-4.2°C 60% 21.0 mph NNW33.8 kmh NNW 35.0 mph56.3 kmh 30.14 in1020.7 mb 0.00 in0.0 mm 0.00 in0.0 mm 0.00 in0.0 mm
02:12 AM 37.0°F2.8°C 24.4°F-4.2°C 60% 17.0 mph NNW27.4 kmh NNW 23.0 mph37.0 kmh 30.14 in1020.7 mb 0.00 in0.0 mm 0.00 in0.0 mm 0.00 in0.0 mm
02:11 AM 37.1°F2.8°C 24.5°F-4.2°C 60% 16.0 mph NNW25.7 kmh NNW 22.0 mph35.4 kmh 30.14 in1020.7 mb 0.00 in0.0 mm 0.00 in0.0 mm 0.00 in0.0 mm
02:10 AM 37.1°F2.8°C 24.5°F-4.2°C 60% 20.0 mph NW32.2 kmh NW 27.0 mph43.5 kmh 30.14 in1020.7 mb 0.00 in0.0 mm 0.00 in0.0 mm 0.00 in0.0 mm
02:09 AM 37.2°F2.9°C 24.6°F-4.1°C 60% 20.0 mph NNW32.2 kmh NNW 29.0 mph46.7 kmh 30.14 in1020.7 mb 0.00 in0.0 mm 0.00 in0.0 mm 0.00 in0.0 mm
02:08 AM 37.2°F2.9°C 24.6°F-4.1°C 60% 23.0 mph NNW37.0 kmh NNW 35.0 mph56.3 kmh 30.14 in1020.7 mb 0.00 in0.0 mm 0.00 in0.0 mm 0.00 in0.0 mm
02:07 AM 37.4°F3.0°C 24.8°F-4.0°C 60% 17.0 mph NNW27.4 kmh NNW 23.0 mph37.0 kmh 30.14 in1020.7 mb 0.00 in0.0 mm 0.00 in0.0 mm 0.00 in0.0 mm
02:06 AM 37.5°F3.1°C 24.5°F-4.2°C 59% 17.0 mph NNW27.4 kmh NNW 23.0 mph37.0 kmh 30.14 in1020.7 mb 0.00 in0.0 mm 0.00 in0.0 mm 0.00 in0.0 mm
02:05 AM 37.7°F3.2°C 24.7°F-4.1°C 59% 16.0 mph NW25.7 kmh NW 22.0 mph35.4 kmh 30.14 in1020.7 mb 0.00 in0.0 mm 0.00 in0.0 mm 0.00 in0.0 mm
02:04 AM 37.9°F3.3°C 24.5°F-4.2°C 58% 12.0 mph NNW19.3 kmh NNW 16.0 mph25.7 kmh 30.14 in1020.7 mb 0.00 in0.0 mm 0.00 in0.0 mm 0.00 in0.0 mm
02:03 AM 38.1°F3.4°C 24.6°F-4.1°C 58% 15.0 mph NNE24.1 kmh NNE 19.0 mph30.6 kmh 30.14 in1020.7 mb 0.00 in0.0 mm 0.00 in0.0 mm 0.00 in0.0 mm
02:02 AM 38.2°F3.4°C 24.3°F-4.3°C 57% 14.0 mph NNW22.5 kmh NNW 19.0 mph30.6 kmh 30.14 in1020.7 mb 0.00 in0.0 mm 0.00 in0.0 mm 0.00 in0.0 mm
02:01 AM 38.4°F3.6°C 24.5°F-4.2°C 57% 21.0 mph NNW33.8 kmh NNW 29.0 mph46.7 kmh 30.14 in1020.7 mb 0.00 in0.0 mm 0.00 in0.0 mm 0.00 in0.0 mm
02:00 AM 38.5°F3.6°C 24.6°F-4.1°C 57% 21.0 mph NNW33.8 kmh NNW 31.0 mph49.9 kmh 30.15 in1021.0 mb 0.00 in0.0 mm 0.00 in0.0 mm 0.00 in0.0 mm
01:59 AM 38.8°F3.8°C 24.9°F-3.9°C 57% 18.0 mph NNW29.0 kmh NNW 26.0 mph41.8 kmh 30.15 in1021.0 mb 0.00 in0.0 mm 0.00 in0.0 mm 0.00 in0.0 mm
01:58 AM 38.8°F3.8°C 24.5°F-4.2°C 56% 19.0 mph NNE30.6 kmh NNE 27.0 mph43.5 kmh 30.15 in1021.0 mb 0.00 in0.0 mm 0.00 in0.0 mm 0.00 in0.0 mm
01:57 AM 38.9°F3.8°C 25.0°F-3.9°C 57% 23.0 mph NNW37.0 kmh NNW 29.0 mph46.7 kmh 30.14 in1020.7 mb 0.00 in0.0 mm 0.00 in0.0 mm 0.00 in0.0 mm
01:56 AM 39.0°F3.9°C 25.1°F-3.8°C 57% 20.0 mph 32.2 kmh 28.0 mph45.1 kmh 30.13 in1020.3 mb 0.00 in0.0 mm 0.00 in0.0 mm 0.00 in0.0 mm
01:55 AM 38.9°F3.8°C 25.0°F-3.9°C 57% 19.0 mph W30.6 kmh W 28.0 mph45.1 kmh 30.13 in1020.3 mb 0.00 in0.0 mm 0.00 in0.0 mm 0.00 in0.0 mm
01:54 AM 38.8°F3.8°C 24.9°F-3.9°C 57% 11.0 mph WNW17.7 kmh WNW 15.0 mph24.1 kmh 30.13 in1020.3 mb 0.00 in0.0 mm 0.00 in0.0 mm 0.00 in0.0 mm
01:53 AM 38.7°F3.7°C 25.2°F-3.8°C 58% 9.0 mph NW14.5 kmh NW 12.0 mph19.3 kmh 30.13 in1020.3 mb 0.00 in0.0 mm 0.00 in0.0 mm 0.00 in0.0 mm
01:52 AM 38.8°F3.8°C 25.7°F-3.5°C 59% 9.0 mph NW14.5 kmh NW 13.0 mph20.9 kmh 30.13 in1020.3 mb 0.00 in0.0 mm 0.00 in0.0 mm 0.00 in0.0 mm
01:51 AM 38.9°F3.8°C 25.8°F-3.4°C 59% 10.0 mph NNW16.1 kmh NNW 13.0 mph20.9 kmh 30.13 in1020.3 mb 0.00 in0.0 mm 0.00 in0.0 mm 0.00 in0.0 mm
01:50 AM 39.0°F3.9°C 25.5°F-3.6°C 58% 15.0 mph 24.1 kmh 18.0 mph29.0 kmh 30.13 in1020.3 mb 0.00 in0.0 mm 0.00 in0.0 mm 0.00 in0.0 mm
01:49 AM 39.2°F4.0°C 25.3°F-3.7°C 57% 18.0 mph NNE29.0 kmh NNE 23.0 mph37.0 kmh 30.13 in1020.3 mb 0.00 in0.0 mm 0.00 in0.0 mm 0.00 in0.0 mm
01:48 AM 39.4°F4.1°C 25.0°F-3.9°C 56% 18.0 mph 29.0 kmh 24.0 mph38.6 kmh 30.12 in1020.0 mb 0.00 in0.0 mm 0.00 in0.0 mm 0.00 in0.0 mm
01:47 AM 39.4°F4.1°C 25.0°F-3.9°C 56% 15.0 mph NNE24.1 kmh NNE 23.0 mph37.0 kmh 30.12 in1020.0 mb 0.00 in0.0 mm 0.00 in0.0 mm 0.00 in0.0 mm
01:46 AM 39.4°F4.1°C 25.0°F-3.9°C 56% 14.0 mph NNE22.5 kmh NNE 24.0 mph38.6 kmh 30.12 in1020.0 mb 0.00 in0.0 mm 0.00 in0.0 mm 0.00 in0.0 mm
01:45 AM 39.3°F4.1°C 24.9°F-3.9°C 56% 15.0 mph NE24.1 kmh NE 22.0 mph35.4 kmh 30.12 in1020.0 mb 0.00 in0.0 mm 0.00 in0.0 mm 0.00 in0.0 mm
01:44 AM 39.2°F4.0°C 24.8°F-4.0°C 56% 16.0 mph NE25.7 kmh NE 38.0 mph61.2 kmh 30.12 in1020.0 mb 0.00 in0.0 mm 0.00 in0.0 mm 0.00 in0.0 mm
01:43 AM 38.8°F3.8°C 24.9°F-3.9°C 57% 28.0 mph 45.1 kmh 38.0 mph61.2 kmh 30.11 in1019.6 mb 0.00 in0.0 mm 0.00 in0.0 mm 0.00 in0.0 mm
01:42 AM 38.1°F3.4°C 25.1°F-3.8°C 59% 13.0 mph NE20.9 kmh NE 18.0 mph29.0 kmh 30.11 in1019.6 mb 0.00 in0.0 mm 0.00 in0.0 mm 0.00 in0.0 mm
01:41 AM 37.9°F3.3°C 24.9°F-3.9°C 59% 13.0 mph 20.9 kmh 18.0 mph29.0 kmh 30.09 in1019.0 mb 0.00 in0.0 mm 0.00 in0.0 mm 0.00 in0.0 mm
01:40 AM 37.9°F3.3°C 25.3°F-3.7°C 60% 9.0 mph ENE14.5 kmh ENE 14.0 mph22.5 kmh 30.09 in1019.0 mb 0.00 in0.0 mm 0.00 in0.0 mm 0.00 in0.0 mm
01:39 AM 37.8°F3.2°C 25.2°F-3.8°C 60% 11.0 mph NE17.7 kmh NE 14.0 mph22.5 kmh 30.08 in1018.6 mb 0.00 in0.0 mm 0.00 in0.0 mm 0.00 in0.0 mm
01:38 AM 37.8°F3.2°C 25.2°F-3.8°C 60% 13.0 mph NE20.9 kmh NE 15.0 mph24.1 kmh 30.08 in1018.6 mb 0.00 in0.0 mm 0.00 in0.0 mm 0.00 in0.0 mm
01:37 AM 37.7°F3.2°C 25.1°F-3.8°C 60% 12.0 mph NE19.3 kmh NE 15.0 mph24.1 kmh 30.07 in1018.3 mb 0.00 in0.0 mm 0.00 in0.0 mm 0.00 in0.0 mm
01:36 AM 37.7°F3.2°C 25.1°F-3.8°C 60% 11.0 mph NE17.7 kmh NE 14.0 mph22.5 kmh 30.07 in1018.3 mb 0.00 in0.0 mm 0.00 in0.0 mm 0.00 in0.0 mm
01:35 AM 37.7°F3.2°C 25.1°F-3.8°C 60% 12.0 mph NE19.3 kmh NE 14.0 mph22.5 kmh 30.07 in1018.3 mb 0.00 in0.0 mm 0.00 in0.0 mm 0.00 in0.0 mm
01:34 AM 37.7°F3.2°C 25.1°F-3.8°C 60% 10.0 mph NE16.1 kmh NE 12.0 mph19.3 kmh 30.07 in1018.3 mb 0.00 in0.0 mm 0.00 in0.0 mm 0.00 in0.0 mm
01:33 AM 37.7°F3.2°C 25.1°F-3.8°C 60% 10.0 mph NE16.1 kmh NE 13.0 mph20.9 kmh 30.07 in1018.3 mb 0.00 in0.0 mm 0.00 in0.0 mm 0.00 in0.0 mm
01:32 AM 37.7°F3.2°C 24.7°F-4.1°C 59% 9.0 mph NE14.5 kmh NE 12.0 mph19.3 kmh 30.07 in1018.3 mb 0.00 in0.0 mm 0.00 in0.0 mm 0.00 in0.0 mm
01:31 AM 37.8°F3.2°C 24.8°F-4.0°C 59% 9.0 mph NE14.5 kmh NE 11.0 mph17.7 kmh 30.07 in1018.3 mb 0.00 in0.0 mm 0.00 in0.0 mm 0.00 in0.0 mm
01:30 AM 37.8°F3.2°C 24.4°F-4.2°C 58% 10.0 mph NE16.1 kmh NE 13.0 mph20.9 kmh 30.07 in1018.3 mb 0.00 in0.0 mm 0.00 in0.0 mm 0.00 in0.0 mm
01:29 AM 37.8°F3.2°C 24.4°F-4.2°C 58% 8.0 mph NE12.9 kmh NE 11.0 mph17.7 kmh 30.07 in1018.3 mb 0.00 in0.0 mm 0.00 in0.0 mm 0.00 in0.0 mm
01:28 AM 37.9°F3.3°C 24.5°F-4.2°C 58% 11.0 mph NE17.7 kmh NE 12.0 mph19.3 kmh 30.07 in1018.3 mb 0.00 in0.0 mm 0.00 in0.0 mm 0.00 in0.0 mm
01:27 AM 37.9°F3.3°C 24.5°F-4.2°C 58% 12.0 mph NE19.3 kmh NE 14.0 mph22.5 kmh 30.07 in1018.3 mb 0.00 in0.0 mm 0.00 in0.0 mm 0.00 in0.0 mm
01:26 AM 37.8°F3.2°C 24.4°F-4.2°C 58% 11.0 mph NE17.7 kmh NE 13.0 mph20.9 kmh 30.07 in1018.3 mb 0.00 in0.0 mm 0.00 in0.0 mm 0.00 in0.0 mm
01:25 AM 37.8°F3.2°C 24.4°F-4.2°C 58% 11.0 mph NE17.7 kmh NE 13.0 mph20.9 kmh 30.07 in1018.3 mb 0.00 in0.0 mm 0.00 in0.0 mm 0.00 in0.0 mm
01:24 AM 37.9°F3.3°C 24.5°F-4.2°C 58% 9.0 mph NE14.5 kmh NE 11.0 mph17.7 kmh 30.07 in1018.3 mb 0.00 in0.0 mm 0.00 in0.0 mm 0.00 in0.0 mm
01:23 AM 37.9°F3.3°C 24.5°F-4.2°C 58% 9.0 mph NE14.5 kmh NE 11.0 mph17.7 kmh 30.07 in1018.3 mb 0.00 in0.0 mm 0.00 in0.0 mm 0.00 in0.0 mm
01:22 AM 37.9°F3.3°C 24.0°F-4.4°C 57% 6.0 mph ENE9.7 kmh ENE 9.0 mph14.5 kmh 30.07 in1018.3 mb 0.00 in0.0 mm 0.00 in0.0 mm 0.00 in0.0 mm
01:21 AM 37.9°F3.3°C 24.5°F-4.2°C 58% 7.0 mph ENE11.3 kmh ENE 9.0 mph14.5 kmh 30.07 in1018.3 mb 0.00 in0.0 mm 0.00 in0.0 mm 0.00 in0.0 mm
01:20 AM 37.9°F3.3°C 24.5°F-4.2°C 58% 8.0 mph ENE12.9 kmh ENE 10.0 mph16.1 kmh 30.07 in1018.3 mb 0.00 in0.0 mm 0.00 in0.0 mm 0.00 in0.0 mm
01:19 AM 37.9°F3.3°C 24.0°F-4.4°C 57% 10.0 mph ENE16.1 kmh ENE 12.0 mph19.3 kmh 30.07 in1018.3 mb 0.00 in0.0 mm 0.00 in0.0 mm 0.00 in0.0 mm
01:18 AM 37.9°F3.3°C 24.0°F-4.4°C 57% 9.0 mph NE14.5 kmh NE 12.0 mph19.3 kmh 30.08 in1018.6 mb 0.00 in0.0 mm 0.00 in0.0 mm 0.00 in0.0 mm
01:17 AM 37.9°F3.3°C 24.0°F-4.4°C 57% 8.0 mph NE12.9 kmh NE 10.0 mph16.1 kmh 30.08 in1018.6 mb 0.00 in0.0 mm 0.00 in0.0 mm 0.00 in0.0 mm
01:16 AM 37.9°F3.3°C 24.0°F-4.4°C 57% 8.0 mph NE12.9 kmh NE 11.0 mph17.7 kmh 30.07 in1018.3 mb 0.00 in0.0 mm 0.00 in0.0 mm 0.00 in0.0 mm
01:15 AM 38.0°F3.3°C 24.1°F-4.4°C 57% 9.0 mph ENE14.5 kmh ENE 12.0 mph19.3 kmh 30.07 in1018.3 mb 0.00 in0.0 mm 0.00 in0.0 mm 0.00 in0.0 mm
01:14 AM 38.0°F3.3°C 24.1°F-4.4°C 57% 11.0 mph ENE17.7 kmh ENE 13.0 mph20.9 kmh 30.07 in1018.3 mb 0.00 in0.0 mm 0.00 in0.0 mm 0.00 in0.0 mm
01:13 AM 37.9°F3.3°C 24.0°F-4.4°C 57% 11.0 mph ENE17.7 kmh ENE 14.0 mph22.5 kmh 30.07 in1018.3 mb 0.00 in0.0 mm 0.00 in0.0 mm 0.00 in0.0 mm
01:12 AM 37.7°F3.2°C 23.9°F-4.5°C 57% 11.0 mph NE17.7 kmh NE 14.0 mph22.5 kmh 30.07 in1018.3 mb 0.00 in0.0 mm 0.00 in0.0 mm 0.00 in0.0 mm
01:11 AM 37.5°F3.1°C 23.7°F-4.6°C 57% 11.0 mph NE17.7 kmh NE 14.0 mph22.5 kmh 30.07 in1018.3 mb 0.00 in0.0 mm 0.00 in0.0 mm 0.00 in0.0 mm
01:10 AM 37.4°F3.0°C 24.0°F-4.4°C 58% 9.0 mph NE14.5 kmh NE 11.0 mph17.7 kmh 30.08 in1018.6 mb 0.00 in0.0 mm 0.00 in0.0 mm 0.00 in0.0 mm
01:09 AM 37.5°F3.1°C 23.7°F-4.6°C 57% 8.0 mph ENE12.9 kmh ENE 11.0 mph17.7 kmh 30.07 in1018.3 mb 0.00 in0.0 mm 0.00 in0.0 mm 0.00 in0.0 mm
01:08 AM 37.4°F3.0°C 23.6°F-4.7°C 57% 9.0 mph NE14.5 kmh NE 11.0 mph17.7 kmh 30.07 in1018.3 mb 0.00 in0.0 mm 0.00 in0.0 mm 0.00 in0.0 mm
01:07 AM 37.4°F3.0°C 23.6°F-4.7°C 57% 8.0 mph NE12.9 kmh NE 9.0 mph14.5 kmh 30.08 in1018.6 mb 0.00 in0.0 mm 0.00 in0.0 mm 0.00 in0.0 mm
01:06 AM 37.5°F3.1°C 23.7°F-4.6°C 57% 7.0 mph ENE11.3 kmh ENE 9.0 mph14.5 kmh 30.07 in1018.3 mb 0.00 in0.0 mm 0.00 in0.0 mm 0.00 in0.0 mm
01:05 AM 37.5°F3.1°C 23.7°F-4.6°C 57% 8.0 mph ENE12.9 kmh ENE 9.0 mph14.5 kmh 30.07 in1018.3 mb 0.00 in0.0 mm 0.00 in0.0 mm 0.00 in0.0 mm
01:04 AM 37.5°F3.1°C 23.7°F-4.6°C 57% 10.0 mph NE16.1 kmh NE 12.0 mph19.3 kmh 30.08 in1018.6 mb 0.00 in0.0 mm 0.00 in0.0 mm 0.00 in0.0 mm
01:03 AM 37.5°F3.1°C 23.7°F-4.6°C 57% 6.0 mph NNE9.7 kmh NNE 11.0 mph17.7 kmh 30.08 in1018.6 mb 0.00 in0.0 mm 0.00 in0.0 mm 0.00 in0.0 mm
01:02 AM 37.5°F3.1°C 23.7°F-4.6°C 57% 5.0 mph 8.0 kmh 8.0 mph12.9 kmh 30.07 in1018.3 mb 0.00 in0.0 mm 0.00 in0.0 mm 0.00 in0.0 mm
01:01 AM 37.4°F3.0°C 23.6°F-4.7°C 57% 6.0 mph NE9.7 kmh NE 9.0 mph14.5 kmh 30.07 in1018.3 mb 0.00 in0.0 mm 0.00 in0.0 mm 0.00 in0.0 mm
01:00 AM 37.3°F2.9°C 23.9°F-4.5°C 58% 5.0 mph NE8.0 kmh NE 9.0 mph14.5 kmh 30.08 in1018.6 mb 0.00 in0.0 mm 0.00 in0.0 mm 0.00 in0.0 mm
12:59 AM 37.4°F3.0°C 24.0°F-4.4°C 58% 7.0 mph NE11.3 kmh NE 10.0 mph16.1 kmh 30.07 in1018.3 mb 0.00 in0.0 mm 0.00 in0.0 mm 0.00 in0.0 mm
12:58 AM 37.4°F3.0°C 24.0°F-4.4°C 58% 7.0 mph NE11.3 kmh NE 9.0 mph14.5 kmh 30.07 in1018.3 mb 0.00 in0.0 mm 0.00 in0.0 mm 0.00 in0.0 mm
12:57 AM 37.4°F3.0°C 24.0°F-4.4°C 58% 7.0 mph NE11.3 kmh NE 9.0 mph14.5 kmh 30.07 in1018.3 mb 0.00 in0.0 mm 0.00 in0.0 mm 0.00 in0.0 mm
12:56 AM 37.4°F3.0°C 24.0°F-4.4°C 58% 9.0 mph NE14.5 kmh NE 10.0 mph16.1 kmh 30.08 in1018.6 mb 0.00 in0.0 mm 0.00 in0.0 mm 0.00 in0.0 mm
12:55 AM 37.2°F2.9°C 23.8°F-4.6°C 58% 7.0 mph NE11.3 kmh NE 10.0 mph16.1 kmh 30.08 in1018.6 mb 0.00 in0.0 mm 0.00 in0.0 mm 0.00 in0.0 mm
12:54 AM 37.2°F2.9°C 23.8°F-4.6°C 58% 5.0 mph NE8.0 kmh NE 10.0 mph16.1 kmh 30.08 in1018.6 mb 0.00 in0.0 mm 0.00 in0.0 mm 0.00 in0.0 mm
12:53 AM 37.3°F2.9°C 23.9°F-4.5°C 58% 5.0 mph NE8.0 kmh NE 9.0 mph14.5 kmh 30.08 in1018.6 mb 0.00 in0.0 mm 0.00 in0.0 mm 0.00 in0.0 mm
12:52 AM 37.3°F2.9°C 23.9°F-4.5°C 58% 7.0 mph NE11.3 kmh NE 9.0 mph14.5 kmh 30.07 in1018.3 mb 0.00 in0.0 mm 0.00 in0.0 mm 0.00 in0.0 mm
12:51 AM 37.4°F3.0°C 24.0°F-4.4°C 58% 8.0 mph ENE12.9 kmh ENE 11.0 mph17.7 kmh 30.07 in1018.3 mb 0.00 in0.0 mm 0.00 in0.0 mm 0.00 in0.0 mm
12:50 AM 37.5°F3.1°C 24.1°F-4.4°C 58% 7.0 mph ENE11.3 kmh ENE 9.0 mph14.5 kmh 30.07 in1018.3 mb 0.00 in0.0 mm 0.00 in0.0 mm 0.00 in0.0 mm
12:49 AM 37.5°F3.1°C 24.1°F-4.4°C 58% 6.0 mph ENE9.7 kmh ENE 9.0 mph14.5 kmh 30.08 in1018.6 mb 0.00 in0.0 mm 0.00 in0.0 mm 0.00 in0.0 mm
12:48 AM 37.6°F3.1°C 24.2°F-4.3°C 58% 7.0 mph ENE11.3 kmh ENE 9.0 mph14.5 kmh 30.08 in1018.6 mb 0.00 in0.0 mm 0.00 in0.0 mm 0.00 in0.0 mm
12:47 AM 37.6°F3.1°C 24.2°F-4.3°C 58% 6.0 mph NE9.7 kmh NE 8.0 mph12.9 kmh 30.08 in1018.6 mb 0.00 in0.0 mm 0.00 in0.0 mm 0.00 in0.0 mm
12:46 AM 37.6°F3.1°C 24.2°F-4.3°C 58% 6.0 mph NE9.7 kmh NE 8.0 mph12.9 kmh 30.08 in1018.6 mb 0.00 in0.0 mm 0.00 in0.0 mm 0.00 in0.0 mm
12:45 AM 37.5°F3.1°C 24.1°F-4.4°C 58% 5.0 mph NE8.0 kmh NE 8.0 mph12.9 kmh 30.08 in1018.6 mb 0.00 in0.0 mm 0.00 in0.0 mm 0.00 in0.0 mm
12:44 AM 37.5°F3.1°C 24.1°F-4.4°C 58% 8.0 mph NE12.9 kmh NE 10.0 mph16.1 kmh 30.08 in1018.6 mb 0.00 in0.0 mm 0.00 in0.0 mm 0.00 in0.0 mm
12:43 AM 37.3°F2.9°C 24.3°F-4.3°C 59% 8.0 mph NE12.9 kmh NE 10.0 mph16.1 kmh 30.08 in1018.6 mb 0.00 in0.0 mm 0.00 in0.0 mm 0.00 in0.0 mm
12:42 AM 37.3°F2.9°C 24.3°F-4.3°C 59% 8.0 mph ENE12.9 kmh ENE 10.0 mph16.1 kmh 30.08 in1018.6 mb 0.00 in0.0 mm 0.00 in0.0 mm 0.00 in0.0 mm
12:41 AM 37.2°F2.9°C 24.2°F-4.3°C 59% 8.0 mph ENE12.9 kmh ENE 11.0 mph17.7 kmh 30.07 in1018.3 mb 0.00 in0.0 mm 0.00 in0.0 mm 0.00 in0.0 mm
12:40 AM 37.3°F2.9°C 24.3°F-4.3°C 59% 7.0 mph NE11.3 kmh NE 9.0 mph14.5 kmh 30.08 in1018.6 mb 0.00 in0.0 mm 0.00 in0.0 mm 0.00 in0.0 mm
12:39 AM 37.4°F3.0°C 24.4°F-4.2°C 59% 6.0 mph NE9.7 kmh NE 8.0 mph12.9 kmh 30.08 in1018.6 mb 0.00 in0.0 mm 0.00 in0.0 mm 0.00 in0.0 mm
12:38 AM 37.4°F3.0°C 24.8°F-4.0°C 60% 5.0 mph NE8.0 kmh NE 7.0 mph11.3 kmh 30.09 in1019.0 mb 0.00 in0.0 mm 0.00 in0.0 mm 0.00 in0.0 mm
12:37 AM 37.5°F3.1°C 24.9°F-3.9°C 60% 7.0 mph NE11.3 kmh NE 10.0 mph16.1 kmh 30.08 in1018.6 mb 0.00 in0.0 mm 0.00 in0.0 mm 0.00 in0.0 mm
12:36 AM 37.5°F3.1°C 24.9°F-3.9°C 60% 10.0 mph NE16.1 kmh NE 11.0 mph17.7 kmh 30.09 in1019.0 mb 0.00 in0.0 mm 0.00 in0.0 mm 0.00 in0.0 mm
12:35 AM 37.5°F3.1°C 24.9°F-3.9°C 60% 7.0 mph NE11.3 kmh NE 10.0 mph16.1 kmh 30.09 in1019.0 mb 0.00 in0.0 mm 0.00 in0.0 mm 0.00 in0.0 mm
12:34 AM 37.6°F3.1°C 25.0°F-3.9°C 60% 6.0 mph NE9.7 kmh NE 7.0 mph11.3 kmh 30.09 in1019.0 mb 0.00 in0.0 mm 0.00 in0.0 mm 0.00 in0.0 mm
12:33 AM 37.6°F3.1°C 25.0°F-3.9°C 60% 5.0 mph NE8.0 kmh NE 8.0 mph12.9 kmh 30.09 in1019.0 mb 0.00 in0.0 mm 0.00 in0.0 mm 0.00 in0.0 mm
12:32 AM 37.7°F3.2°C 25.1°F-3.8°C 60% 6.0 mph NE9.7 kmh NE 8.0 mph12.9 kmh 30.09 in1019.0 mb 0.00 in0.0 mm 0.00 in0.0 mm 0.00 in0.0 mm
12:31 AM 37.7°F3.2°C 25.1°F-3.8°C 60% 6.0 mph NE9.7 kmh NE 7.0 mph11.3 kmh 30.08 in1018.6 mb 0.00 in0.0 mm 0.00 in0.0 mm 0.00 in0.0 mm
12:30 AM 37.7°F3.2°C 25.5°F-3.6°C 61% 9.0 mph ENE14.5 kmh ENE 11.0 mph17.7 kmh 30.08 in1018.6 mb 0.00 in0.0 mm 0.00 in0.0 mm 0.00 in0.0 mm
12:29 AM 37.6°F3.1°C 25.0°F-3.9°C 60% 10.0 mph ENE16.1 kmh ENE 13.0 mph20.9 kmh 30.08 in1018.6 mb 0.00 in0.0 mm 0.00 in0.0 mm 0.00 in0.0 mm
12:28 AM 37.4°F3.0°C 24.8°F-4.0°C 60% 11.0 mph ENE17.7 kmh ENE 13.0 mph20.9 kmh 30.09 in1019.0 mb 0.00 in0.0 mm 0.00 in0.0 mm 0.00 in0.0 mm
12:27 AM 37.2°F2.9°C 25.4°F-3.7°C 62% 9.0 mph ENE14.5 kmh ENE 12.0 mph19.3 kmh 30.09 in1019.0 mb 0.00 in0.0 mm 0.00 in0.0 mm 0.00 in0.0 mm
12:26 AM 37.2°F2.9°C 25.4°F-3.7°C 62% 8.0 mph ENE12.9 kmh ENE 10.0 mph16.1 kmh 30.09 in1019.0 mb 0.00 in0.0 mm 0.00 in0.0 mm 0.00 in0.0 mm
12:25 AM 37.2°F2.9°C 25.0°F-3.9°C 61% 4.0 mph NE6.4 kmh NE 7.0 mph11.3 kmh 30.09 in1019.0 mb 0.00 in0.0 mm 0.00 in0.0 mm 0.00 in0.0 mm
12:24 AM 37.3°F2.9°C 25.1°F-3.8°C 61% 4.0 mph 6.4 kmh 8.0 mph12.9 kmh 30.09 in1019.0 mb 0.00 in0.0 mm 0.00 in0.0 mm 0.00 in0.0 mm
12:23 AM 37.3°F2.9°C 25.1°F-3.8°C 61% 6.0 mph NE9.7 kmh NE 8.0 mph12.9 kmh 30.09 in1019.0 mb 0.00 in0.0 mm 0.00 in0.0 mm 0.00 in0.0 mm
12:22 AM 37.3°F2.9°C 25.1°F-3.8°C 61% 7.0 mph NE11.3 kmh NE 10.0 mph16.1 kmh 30.09 in1019.0 mb 0.00 in0.0 mm 0.00 in0.0 mm 0.00 in0.0 mm
12:21 AM 37.3°F2.9°C 25.5°F-3.6°C 62% 6.0 mph NE9.7 kmh NE 10.0 mph16.1 kmh 30.09 in1019.0 mb 0.00 in0.0 mm 0.00 in0.0 mm 0.00 in0.0 mm
12:20 AM 37.2°F2.9°C 25.4°F-3.7°C 62% 8.0 mph NE12.9 kmh NE 10.0 mph16.1 kmh 30.09 in1019.0 mb 0.00 in0.0 mm 0.00 in0.0 mm 0.00 in0.0 mm
12:19 AM 37.2°F2.9°C 25.4°F-3.7°C 62% 8.0 mph NE12.9 kmh NE 10.0 mph16.1 kmh 30.09 in1019.0 mb 0.00 in0.0 mm 0.00 in0.0 mm 0.00 in0.0 mm
12:18 AM 37.2°F2.9°C 25.4°F-3.7°C 62% 9.0 mph NE14.5 kmh NE 10.0 mph16.1 kmh 30.09 in1019.0 mb 0.00 in0.0 mm 0.00 in0.0 mm 0.00 in0.0 mm
12:17 AM 37.2°F2.9°C 25.4°F-3.7°C 62% 7.0 mph NE11.3 kmh NE 10.0 mph16.1 kmh 30.09 in1019.0 mb 0.00 in0.0 mm 0.00 in0.0 mm 0.00 in0.0 mm
12:16 AM 37.3°F2.9°C 25.5°F-3.6°C 62% 4.0 mph NE6.4 kmh NE 6.0 mph9.7 kmh 30.09 in1019.0 mb 0.00 in0.0 mm 0.00 in0.0 mm 0.00 in0.0 mm
12:15 AM 37.3°F2.9°C 25.9°F-3.4°C 63% 5.0 mph NE8.0 kmh NE 6.0 mph9.7 kmh 30.09 in1019.0 mb 0.00 in0.0 mm 0.00 in0.0 mm 0.00 in0.0 mm
12:14 AM 37.3°F2.9°C 25.5°F-3.6°C 62% 6.0 mph NE9.7 kmh NE 7.0 mph11.3 kmh 30.09 in1019.0 mb 0.00 in0.0 mm 0.00 in0.0 mm 0.00 in0.0 mm
12:13 AM 37.2°F2.9°C 25.4°F-3.7°C 62% 6.0 mph ENE9.7 kmh ENE 9.0 mph14.5 kmh 30.09 in1019.0 mb 0.00 in0.0 mm 0.00 in0.0 mm 0.00 in0.0 mm
12:12 AM 37.2°F2.9°C 25.4°F-3.7°C 62% 7.0 mph ENE11.3 kmh ENE 10.0 mph16.1 kmh 30.09 in1019.0 mb 0.00 in0.0 mm 0.00 in0.0 mm 0.00 in0.0 mm
12:11 AM 37.2°F2.9°C 25.4°F-3.7°C 62% 8.0 mph NE12.9 kmh NE 10.0 mph16.1 kmh 30.09 in1019.0 mb 0.00 in0.0 mm 0.00 in0.0 mm 0.00 in0.0 mm
12:10 AM 37.1°F2.8°C 24.9°F-3.9°C 61% 7.0 mph NE11.3 kmh NE 10.0 mph16.1 kmh 30.09 in1019.0 mb 0.00 in0.0 mm 0.00 in0.0 mm 0.00 in0.0 mm
12:09 AM 37.1°F2.8°C 24.9°F-3.9°C 61% 7.0 mph NE11.3 kmh NE 10.0 mph16.1 kmh 30.09 in1019.0 mb 0.00 in0.0 mm 0.00 in0.0 mm 0.00 in0.0 mm
12:08 AM 37.1°F2.8°C 24.9°F-3.9°C 61% 5.0 mph NNE8.0 kmh NNE 9.0 mph14.5 kmh 30.09 in1019.0 mb 0.00 in0.0 mm 0.00 in0.0 mm 0.00 in0.0 mm
12:07 AM 37.2°F2.9°C 25.0°F-3.9°C 61% 8.0 mph NE12.9 kmh NE 10.0 mph16.1 kmh 30.09 in1019.0 mb 0.00 in0.0 mm 0.00 in0.0 mm 0.00 in0.0 mm
12:06 AM 37.2°F2.9°C 25.0°F-3.9°C 61% 9.0 mph NE14.5 kmh NE 11.0 mph17.7 kmh 30.09 in1019.0 mb 0.00 in0.0 mm 0.00 in0.0 mm 0.00 in0.0 mm
12:05 AM 37.2°F2.9°C 25.0°F-3.9°C 61% 9.0 mph NE14.5 kmh NE 11.0 mph17.7 kmh 30.09 in1019.0 mb 0.00 in0.0 mm 0.00 in0.0 mm 0.00 in0.0 mm
12:04 AM 37.2°F2.9°C 25.0°F-3.9°C 61% 8.0 mph NE12.9 kmh NE 11.0 mph17.7 kmh 30.10 in1019.3 mb 0.00 in0.0 mm 0.00 in0.0 mm 0.00 in0.0 mm
12:03 AM 37.2°F2.9°C 25.0°F-3.9°C 61% 8.0 mph NE12.9 kmh NE 10.0 mph16.1 kmh 30.10 in1019.3 mb 0.00 in0.0 mm 0.00 in0.0 mm 0.00 in0.0 mm
12:02 AM 37.1°F2.8°C 24.9°F-3.9°C 61% 6.0 mph NE9.7 kmh NE 9.0 mph14.5 kmh 30.09 in1019.0 mb 0.00 in0.0 mm 0.00 in0.0 mm 0.00 in0.0 mm
12:01 AM 37.0°F2.8°C 24.8°F-4.0°C 61% 9.0 mph ENE14.5 kmh ENE 11.0 mph17.7 kmh 30.09 in1019.0 mb 0.00 in0.0 mm 0.00 in0.0 mm 0.00 in0.0 mm
12:00 AM 37.0°F2.8°C 24.8°F-4.0°C 61% 9.0 mph ENE14.5 kmh ENE 10.0 mph16.1 kmh 30.09 in1019.0 mb 0.00 in0.0 mm 0.00 in0.0 mm 0.00 in0.0 mm